<?xml version="1.0" encoding="utf-8"?>
<gpx xmlns:xsi="http://www.w3.org/2001/XMLSchema-instance" xmlns:xsd="http://www.w3.org/2001/XMLSchema" version="1.1" creator="Shapelink.com" xmlns="http://www.topografix.com/GPX/1/1" xmlns:gpxtpx="http://www.garmin.com/xmlschemas/TrackPointExtension/v1">
  <metadata>
    <name>Kører 8.61 km, 2011-06-24</name>
    <desc></desc>
    <author><name>Jojje Borssén</name></author> 
    <time>2011-06-24T13:39:42Z</time>
  </metadata>
  <trk>
    <name>Kører 8.61 km, 2011-06-24</name>
    <trkseg>
      <trkpt lat="60.8777604871" lon="15.1214196686">
        <ele>277</ele>
        <time>2011-06-24T13:39:42Z</time>
      </trkpt>
      <trkpt lat="60.8778458149" lon="15.1216230135">
        <ele>275.6</ele>
        <time>2011-06-24T13:39:47Z</time>
      </trkpt>
      <trkpt lat="60.8779411171" lon="15.1218754763">
        <ele>277.6</ele>
        <time>2011-06-24T13:39:53Z</time>
      </trkpt>
      <trkpt lat="60.8780130338" lon="15.122147469">
        <ele>280.8</ele>
        <time>2011-06-24T13:39:59Z</time>
      </trkpt>
      <trkpt lat="60.8779997065" lon="15.1222969183">
        <ele>283.4</ele>
        <time>2011-06-24T13:40:05Z</time>
      </trkpt>
      <trkpt lat="60.8779593896" lon="15.122499425">
        <ele>282</ele>
        <time>2011-06-24T13:40:13Z</time>
      </trkpt>
      <trkpt lat="60.8779924143" lon="15.1227299272">
        <ele>276</ele>
        <time>2011-06-24T13:40:20Z</time>
      </trkpt>
      <trkpt lat="60.8780498303" lon="15.1229437495">
        <ele>269.8</ele>
        <time>2011-06-24T13:40:26Z</time>
      </trkpt>
      <trkpt lat="60.8781115211" lon="15.123239882">
        <ele>263</ele>
        <time>2011-06-24T13:40:33Z</time>
      </trkpt>
      <trkpt lat="60.8781270276" lon="15.1235542871">
        <ele>256.8</ele>
        <time>2011-06-24T13:40:40Z</time>
      </trkpt>
      <trkpt lat="60.878107833" lon="15.1238082587">
        <ele>251.2</ele>
        <time>2011-06-24T13:40:46Z</time>
      </trkpt>
      <trkpt lat="60.8780728805" lon="15.1241031339">
        <ele>246.6</ele>
        <time>2011-06-24T13:40:53Z</time>
      </trkpt>
      <trkpt lat="60.8780458908" lon="15.1243556805">
        <ele>243.2</ele>
        <time>2011-06-24T13:40:59Z</time>
      </trkpt>
      <trkpt lat="60.878025439" lon="15.1245825786">
        <ele>240.4</ele>
        <time>2011-06-24T13:41:04Z</time>
      </trkpt>
      <trkpt lat="60.877986547" lon="15.1248990791">
        <ele>238</ele>
        <time>2011-06-24T13:41:12Z</time>
      </trkpt>
      <trkpt lat="60.877926784" lon="15.1251503685">
        <ele>236.2</ele>
        <time>2011-06-24T13:41:18Z</time>
      </trkpt>
      <trkpt lat="60.8778552026" lon="15.125353881">
        <ele>235.2</ele>
        <time>2011-06-24T13:41:24Z</time>
      </trkpt>
      <trkpt lat="60.8777704616" lon="15.1255377799">
        <ele>234.4</ele>
        <time>2011-06-24T13:41:30Z</time>
      </trkpt>
      <trkpt lat="60.8776816973" lon="15.1257105309">
        <ele>234.2</ele>
        <time>2011-06-24T13:41:36Z</time>
      </trkpt>
      <trkpt lat="60.8775931844" lon="15.1258873051">
        <ele>234</ele>
        <time>2011-06-24T13:41:42Z</time>
      </trkpt>
      <trkpt lat="60.8775060964" lon="15.1260784124">
        <ele>233.8</ele>
        <time>2011-06-24T13:41:48Z</time>
      </trkpt>
      <trkpt lat="60.8774360238" lon="15.1262383391">
        <ele>234</ele>
        <time>2011-06-24T13:41:53Z</time>
      </trkpt>
      <trkpt lat="60.8773387937" lon="15.1264718588">
        <ele>235</ele>
        <time>2011-06-24T13:42:00Z</time>
      </trkpt>
      <trkpt lat="60.8772246322" lon="15.1267415884">
        <ele>236</ele>
        <time>2011-06-24T13:42:08Z</time>
      </trkpt>
      <trkpt lat="60.8771255582" lon="15.1269608589">
        <ele>237</ele>
        <time>2011-06-24T13:42:15Z</time>
      </trkpt>
      <trkpt lat="60.8770756859" lon="15.1271267367">
        <ele>237.6</ele>
        <time>2011-06-24T13:42:20Z</time>
      </trkpt>
      <trkpt lat="60.8770993228" lon="15.1273786128">
        <ele>238.6</ele>
        <time>2011-06-24T13:42:26Z</time>
      </trkpt>
      <trkpt lat="60.8771414" lon="15.1275391262">
        <ele>239</ele>
        <time>2011-06-24T13:42:30Z</time>
      </trkpt>
      <trkpt lat="60.8772544718" lon="15.1278057544">
        <ele>239.6</ele>
        <time>2011-06-24T13:42:37Z</time>
      </trkpt>
      <trkpt lat="60.877342817" lon="15.128037933">
        <ele>240.8</ele>
        <time>2011-06-24T13:42:43Z</time>
      </trkpt>
      <trkpt lat="60.8774290668" lon="15.1282879651">
        <ele>241.2</ele>
        <time>2011-06-24T13:42:49Z</time>
      </trkpt>
      <trkpt lat="60.8775112094" lon="15.128620978">
        <ele>242</ele>
        <time>2011-06-24T13:42:56Z</time>
      </trkpt>
      <trkpt lat="60.8775625905" lon="15.1289037833">
        <ele>243</ele>
        <time>2011-06-24T13:43:02Z</time>
      </trkpt>
      <trkpt lat="60.8775930168" lon="15.129235958">
        <ele>243.4</ele>
        <time>2011-06-24T13:43:09Z</time>
      </trkpt>
      <trkpt lat="60.8776056734" lon="15.1295563142">
        <ele>243.8</ele>
        <time>2011-06-24T13:43:16Z</time>
      </trkpt>
      <trkpt lat="60.8776140553" lon="15.129843981">
        <ele>243.8</ele>
        <time>2011-06-24T13:43:22Z</time>
      </trkpt>
      <trkpt lat="60.8776423023" lon="15.1301835318">
        <ele>244</ele>
        <time>2011-06-24T13:43:29Z</time>
      </trkpt>
      <trkpt lat="60.8776752432" lon="15.1305014573">
        <ele>244.4</ele>
        <time>2011-06-24T13:43:36Z</time>
      </trkpt>
      <trkpt lat="60.8777153087" lon="15.1307785629">
        <ele>245.2</ele>
        <time>2011-06-24T13:43:42Z</time>
      </trkpt>
      <trkpt lat="60.8777666897" lon="15.1310589374">
        <ele>245.6</ele>
        <time>2011-06-24T13:43:48Z</time>
      </trkpt>
      <trkpt lat="60.8778153047" lon="15.1312967319">
        <ele>245.8</ele>
        <time>2011-06-24T13:43:53Z</time>
      </trkpt>
      <trkpt lat="60.8778745648" lon="15.1315872486">
        <ele>245.8</ele>
        <time>2011-06-24T13:43:59Z</time>
      </trkpt>
      <trkpt lat="60.8779230122" lon="15.1318692157">
        <ele>246.8</ele>
        <time>2011-06-24T13:44:05Z</time>
      </trkpt>
      <trkpt lat="60.877964754" lon="15.1321401187">
        <ele>247.4</ele>
        <time>2011-06-24T13:44:11Z</time>
      </trkpt>
      <trkpt lat="60.8779958509" lon="15.132427115">
        <ele>247.6</ele>
        <time>2011-06-24T13:44:17Z</time>
      </trkpt>
      <trkpt lat="60.8780210804" lon="15.1327100879">
        <ele>248.6</ele>
        <time>2011-06-24T13:44:23Z</time>
      </trkpt>
      <trkpt lat="60.878040694" lon="15.1329947372">
        <ele>249.2</ele>
        <time>2011-06-24T13:44:29Z</time>
      </trkpt>
      <trkpt lat="60.878056452" lon="15.133256504">
        <ele>249.6</ele>
        <time>2011-06-24T13:44:35Z</time>
      </trkpt>
      <trkpt lat="60.8780644986" lon="15.1335165943">
        <ele>249.8</ele>
        <time>2011-06-24T13:44:41Z</time>
      </trkpt>
      <trkpt lat="60.8780764847" lon="15.1337819653">
        <ele>250.8</ele>
        <time>2011-06-24T13:44:47Z</time>
      </trkpt>
      <trkpt lat="60.8780860401" lon="15.1340571431">
        <ele>251.4</ele>
        <time>2011-06-24T13:44:53Z</time>
      </trkpt>
      <trkpt lat="60.8780892252" lon="15.1340989687">
        <ele>251.6</ele>
        <time>2011-06-24T13:44:54Z</time>
      </trkpt>
      <trkpt lat="60.878109258" lon="15.134372554">
        <ele>252.8</ele>
        <time>2011-06-24T13:45:00Z</time>
      </trkpt>
      <trkpt lat="60.8781294584" lon="15.1346140365">
        <ele>254</ele>
        <time>2011-06-24T13:45:05Z</time>
      </trkpt>
      <trkpt lat="60.8781737986" lon="15.1348810838">
        <ele>255.6</ele>
        <time>2011-06-24T13:45:11Z</time>
      </trkpt>
      <trkpt lat="60.8782457153" lon="15.1350353946">
        <ele>256.6</ele>
        <time>2011-06-24T13:45:16Z</time>
      </trkpt>
      <trkpt lat="60.8783550153" lon="15.1352194611">
        <ele>257.6</ele>
        <time>2011-06-24T13:45:23Z</time>
      </trkpt>
      <trkpt lat="60.8784799894" lon="15.1353855904">
        <ele>258</ele>
        <time>2011-06-24T13:45:30Z</time>
      </trkpt>
      <trkpt lat="60.8785793987" lon="15.1355144202">
        <ele>258.2</ele>
        <time>2011-06-24T13:45:35Z</time>
      </trkpt>
      <trkpt lat="60.8786726055" lon="15.1356605167">
        <ele>258.2</ele>
        <time>2011-06-24T13:45:40Z</time>
      </trkpt>
      <trkpt lat="60.8787738588" lon="15.135853971">
        <ele>258.2</ele>
        <time>2011-06-24T13:45:46Z</time>
      </trkpt>
      <trkpt lat="60.8788806442" lon="15.1360505265">
        <ele>258.4</ele>
        <time>2011-06-24T13:45:52Z</time>
      </trkpt>
      <trkpt lat="60.8789932131" lon="15.1362839624">
        <ele>258.4</ele>
        <time>2011-06-24T13:45:59Z</time>
      </trkpt>
      <trkpt lat="60.8790874257" lon="15.1364665202">
        <ele>258.4</ele>
        <time>2011-06-24T13:46:05Z</time>
      </trkpt>
      <trkpt lat="60.8791080452" lon="15.136468029">
        <ele>258.4</ele>
        <time>2011-06-24T13:46:06Z</time>
      </trkpt>
      <trkpt lat="60.8791959713" lon="15.1364868882">
        <ele>258.4</ele>
        <time>2011-06-24T13:46:10Z</time>
      </trkpt>
      <trkpt lat="60.8793599213" lon="15.1366349964">
        <ele>258.4</ele>
        <time>2011-06-24T13:46:17Z</time>
      </trkpt>
      <trkpt lat="60.8794476798" lon="15.1367333161">
        <ele>258.4</ele>
        <time>2011-06-24T13:46:21Z</time>
      </trkpt>
      <trkpt lat="60.8794856498" lon="15.1368075797">
        <ele>258.4</ele>
        <time>2011-06-24T13:46:23Z</time>
      </trkpt>
      <trkpt lat="60.8795705584" lon="15.1370389202">
        <ele>258.4</ele>
        <time>2011-06-24T13:46:29Z</time>
      </trkpt>
      <trkpt lat="60.8796495159" lon="15.1372865215">
        <ele>258.4</ele>
        <time>2011-06-24T13:46:35Z</time>
      </trkpt>
      <trkpt lat="60.8797202592" lon="15.1375291775">
        <ele>258.4</ele>
        <time>2011-06-24T13:46:41Z</time>
      </trkpt>
      <trkpt lat="60.8797821176" lon="15.1377789581">
        <ele>258.4</ele>
        <time>2011-06-24T13:46:47Z</time>
      </trkpt>
      <trkpt lat="60.8798422996" lon="15.1380266433">
        <ele>259</ele>
        <time>2011-06-24T13:46:53Z</time>
      </trkpt>
      <trkpt lat="60.8798581414" lon="15.1380609252">
        <ele>259.2</ele>
        <time>2011-06-24T13:46:54Z</time>
      </trkpt>
      <trkpt lat="60.8799577184" lon="15.1384341712">
        <ele>260</ele>
        <time>2011-06-24T13:47:03Z</time>
      </trkpt>
      <trkpt lat="60.8800402801" lon="15.1387668488">
        <ele>261.2</ele>
        <time>2011-06-24T13:47:11Z</time>
      </trkpt>
      <trkpt lat="60.8801134541" lon="15.1390135282">
        <ele>262.4</ele>
        <time>2011-06-24T13:47:17Z</time>
      </trkpt>
      <trkpt lat="60.8801622367" lon="15.1392285239">
        <ele>263.2</ele>
        <time>2011-06-24T13:47:22Z</time>
      </trkpt>
      <trkpt lat="60.8802010449" lon="15.1394456151">
        <ele>263.6</ele>
        <time>2011-06-24T13:47:27Z</time>
      </trkpt>
      <trkpt lat="60.880224179" lon="15.1397048673">
        <ele>265</ele>
        <time>2011-06-24T13:47:33Z</time>
      </trkpt>
      <trkpt lat="60.8802487379" lon="15.1399292507">
        <ele>265.6</ele>
        <time>2011-06-24T13:47:38Z</time>
      </trkpt>
      <trkpt lat="60.880293162" lon="15.1401156642">
        <ele>266.6</ele>
        <time>2011-06-24T13:47:43Z</time>
      </trkpt>
      <trkpt lat="60.880372371" lon="15.1402657002">
        <ele>267.4</ele>
        <time>2011-06-24T13:47:48Z</time>
      </trkpt>
      <trkpt lat="60.8804511608" lon="15.1404206815">
        <ele>268.4</ele>
        <time>2011-06-24T13:47:53Z</time>
      </trkpt>
      <trkpt lat="60.8804947467" lon="15.1405070151">
        <ele>269</ele>
        <time>2011-06-24T13:47:56Z</time>
      </trkpt>
      <trkpt lat="60.8805810803" lon="15.1407000503">
        <ele>269.8</ele>
        <time>2011-06-24T13:48:02Z</time>
      </trkpt>
      <trkpt lat="60.8806704313" lon="15.1409686902">
        <ele>270.6</ele>
        <time>2011-06-24T13:48:11Z</time>
      </trkpt>
      <trkpt lat="60.8807558429" lon="15.1411277786">
        <ele>271.4</ele>
        <time>2011-06-24T13:48:16Z</time>
      </trkpt>
      <trkpt lat="60.8808431823" lon="15.1413200594">
        <ele>272</ele>
        <time>2011-06-24T13:48:21Z</time>
      </trkpt>
      <trkpt lat="60.880854917" lon="15.1413638129">
        <ele>272.2</ele>
        <time>2011-06-24T13:48:22Z</time>
      </trkpt>
      <trkpt lat="60.8809352994" lon="15.1416420082">
        <ele>272.4</ele>
        <time>2011-06-24T13:48:29Z</time>
      </trkpt>
      <trkpt lat="60.8809694975" lon="15.1417571755">
        <ele>272.6</ele>
        <time>2011-06-24T13:48:32Z</time>
      </trkpt>
      <trkpt lat="60.8809819866" lon="15.1419449301">
        <ele>272.6</ele>
        <time>2011-06-24T13:48:36Z</time>
      </trkpt>
      <trkpt lat="60.8810151789" lon="15.1420497038">
        <ele>272.6</ele>
        <time>2011-06-24T13:48:39Z</time>
      </trkpt>
      <trkpt lat="60.8810366365" lon="15.1421217043">
        <ele>272.6</ele>
        <time>2011-06-24T13:48:41Z</time>
      </trkpt>
      <trkpt lat="60.881081815" lon="15.1422263104">
        <ele>272.8</ele>
        <time>2011-06-24T13:48:44Z</time>
      </trkpt>
      <trkpt lat="60.8811497084" lon="15.142353883">
        <ele>272.8</ele>
        <time>2011-06-24T13:48:48Z</time>
      </trkpt>
      <trkpt lat="60.88122305" lon="15.1425803619">
        <ele>272.8</ele>
        <time>2011-06-24T13:48:54Z</time>
      </trkpt>
      <trkpt lat="60.8812357067" lon="15.1426109558">
        <ele>272.8</ele>
        <time>2011-06-24T13:48:55Z</time>
      </trkpt>
      <trkpt lat="60.8813268179" lon="15.1428037395">
        <ele>272.8</ele>
        <time>2011-06-24T13:49:00Z</time>
      </trkpt>
      <trkpt lat="60.881422623" lon="15.1430000436">
        <ele>272.8</ele>
        <time>2011-06-24T13:49:06Z</time>
      </trkpt>
      <trkpt lat="60.8814722439" lon="15.1431141213">
        <ele>272.8</ele>
        <time>2011-06-24T13:49:09Z</time>
      </trkpt>
      <trkpt lat="60.881544412" lon="15.143255021">
        <ele>272.8</ele>
        <time>2011-06-24T13:49:13Z</time>
      </trkpt>
      <trkpt lat="60.8816216093" lon="15.143462054">
        <ele>273.2</ele>
        <time>2011-06-24T13:49:18Z</time>
      </trkpt>
      <trkpt lat="60.881667626" lon="15.14366674">
        <ele>273.8</ele>
        <time>2011-06-24T13:49:23Z</time>
      </trkpt>
      <trkpt lat="60.8816780195" lon="15.1437092362">
        <ele>274</ele>
        <time>2011-06-24T13:49:24Z</time>
      </trkpt>
      <trkpt lat="60.8817682926" lon="15.1441278283">
        <ele>274.4</ele>
        <time>2011-06-24T13:49:33Z</time>
      </trkpt>
      <trkpt lat="60.8818183325" lon="15.1442866653">
        <ele>274.6</ele>
        <time>2011-06-24T13:49:37Z</time>
      </trkpt>
      <trkpt lat="60.8818013173" lon="15.1445190115">
        <ele>275.2</ele>
        <time>2011-06-24T13:49:42Z</time>
      </trkpt>
      <trkpt lat="60.8818063464" lon="15.1446022438">
        <ele>275.6</ele>
        <time>2011-06-24T13:49:44Z</time>
      </trkpt>
      <trkpt lat="60.8818189193" lon="15.144822101">
        <ele>276</ele>
        <time>2011-06-24T13:49:49Z</time>
      </trkpt>
      <trkpt lat="60.8818852201" lon="15.1450609014">
        <ele>276.4</ele>
        <time>2011-06-24T13:49:55Z</time>
      </trkpt>
      <trkpt lat="60.8819063425" lon="15.1451382663">
        <ele>276.6</ele>
        <time>2011-06-24T13:49:57Z</time>
      </trkpt>
      <trkpt lat="60.8819718889" lon="15.1452390168">
        <ele>276.8</ele>
        <time>2011-06-24T13:50:01Z</time>
      </trkpt>
      <trkpt lat="60.8820062547" lon="15.1453054852">
        <ele>277.2</ele>
        <time>2011-06-24T13:50:03Z</time>
      </trkpt>
      <trkpt lat="60.882067275" lon="15.145455605">
        <ele>278</ele>
        <time>2011-06-24T13:50:08Z</time>
      </trkpt>
      <trkpt lat="60.8820883974" lon="15.1455180502">
        <ele>278.2</ele>
        <time>2011-06-24T13:50:10Z</time>
      </trkpt>
      <trkpt lat="60.8821916624" lon="15.1457731952">
        <ele>278.6</ele>
        <time>2011-06-24T13:50:17Z</time>
      </trkpt>
      <trkpt lat="60.8822398583" lon="15.1459319484">
        <ele>278.8</ele>
        <time>2011-06-24T13:50:22Z</time>
      </trkpt>
      <trkpt lat="60.8822736373" lon="15.1461338684">
        <ele>278.8</ele>
        <time>2011-06-24T13:50:28Z</time>
      </trkpt>
      <trkpt lat="60.8822788341" lon="15.1462341997">
        <ele>278.8</ele>
        <time>2011-06-24T13:50:31Z</time>
      </trkpt>
      <trkpt lat="60.8822827736" lon="15.1463810506">
        <ele>278.8</ele>
        <time>2011-06-24T13:50:36Z</time>
      </trkpt>
      <trkpt lat="60.8822608969" lon="15.1465515385">
        <ele>279</ele>
        <time>2011-06-24T13:50:42Z</time>
      </trkpt>
      <trkpt lat="60.8822511739" lon="15.1465771871">
        <ele>279</ele>
        <time>2011-06-24T13:50:43Z</time>
      </trkpt>
      <trkpt lat="60.8822458094" lon="15.1466044283">
        <ele>279</ele>
        <time>2011-06-24T13:50:44Z</time>
      </trkpt>
      <trkpt lat="60.8822204961" lon="15.1467527879">
        <ele>279.8</ele>
        <time>2011-06-24T13:50:49Z</time>
      </trkpt>
      <trkpt lat="60.8822210828" lon="15.1467839686">
        <ele>280</ele>
        <time>2011-06-24T13:50:50Z</time>
      </trkpt>
      <trkpt lat="60.8822071689" lon="15.1469112896">
        <ele>280.4</ele>
        <time>2011-06-24T13:50:54Z</time>
      </trkpt>
      <trkpt lat="60.882216389" lon="15.1470711325">
        <ele>280.6</ele>
        <time>2011-06-24T13:50:59Z</time>
      </trkpt>
      <trkpt lat="60.8822339071" lon="15.1472632456">
        <ele>280.8</ele>
        <time>2011-06-24T13:51:05Z</time>
      </trkpt>
      <trkpt lat="60.8822385172" lon="15.1473033949">
        <ele>280.8</ele>
        <time>2011-06-24T13:51:06Z</time>
      </trkpt>
      <trkpt lat="60.8822432949" lon="15.1473446339">
        <ele>280.8</ele>
        <time>2011-06-24T13:51:07Z</time>
      </trkpt>
      <trkpt lat="60.882242289" lon="15.1476981824">
        <ele>281.8</ele>
        <time>2011-06-24T13:51:16Z</time>
      </trkpt>
      <trkpt lat="60.8822321469" lon="15.1477338893">
        <ele>282</ele>
        <time>2011-06-24T13:51:17Z</time>
      </trkpt>
      <trkpt lat="60.8822315602" lon="15.147830365">
        <ele>282.2</ele>
        <time>2011-06-24T13:51:20Z</time>
      </trkpt>
      <trkpt lat="60.8822393554" lon="15.1479830832">
        <ele>282.6</ele>
        <time>2011-06-24T13:51:24Z</time>
      </trkpt>
      <trkpt lat="60.8822362541" lon="15.1480945624">
        <ele>283.2</ele>
        <time>2011-06-24T13:51:27Z</time>
      </trkpt>
      <trkpt lat="60.8822411994" lon="15.1482566684">
        <ele>283.8</ele>
        <time>2011-06-24T13:51:31Z</time>
      </trkpt>
      <trkpt lat="60.8822526826" lon="15.1485262303">
        <ele>285.4</ele>
        <time>2011-06-24T13:51:38Z</time>
      </trkpt>
      <trkpt lat="60.8822595558" lon="15.148555064">
        <ele>285.6</ele>
        <time>2011-06-24T13:51:39Z</time>
      </trkpt>
      <trkpt lat="60.8822717095" lon="15.1487025017">
        <ele>286.8</ele>
        <time>2011-06-24T13:51:44Z</time>
      </trkpt>
      <trkpt lat="60.8822782474" lon="15.1487498594">
        <ele>287.8</ele>
        <time>2011-06-24T13:51:48Z</time>
      </trkpt>
      <trkpt lat="60.8823044827" lon="15.1488413059">
        <ele>289.2</ele>
        <time>2011-06-24T13:51:54Z</time>
      </trkpt>
      <trkpt lat="60.8823137866" lon="15.1489286453">
        <ele>289.8</ele>
        <time>2011-06-24T13:51:57Z</time>
      </trkpt>
      <trkpt lat="60.8823391838" lon="15.1490720596">
        <ele>290.8</ele>
        <time>2011-06-24T13:52:03Z</time>
      </trkpt>
      <trkpt lat="60.8823401058" lon="15.1490912542">
        <ele>290.8</ele>
        <time>2011-06-24T13:52:04Z</time>
      </trkpt>
      <trkpt lat="60.8823434586" lon="15.1492806013">
        <ele>291.4</ele>
        <time>2011-06-24T13:52:11Z</time>
      </trkpt>
      <trkpt lat="60.8823417822" lon="15.1493429626">
        <ele>291.4</ele>
        <time>2011-06-24T13:52:13Z</time>
      </trkpt>
      <trkpt lat="60.8823529301" lon="15.1495026378">
        <ele>291.6</ele>
        <time>2011-06-24T13:52:18Z</time>
      </trkpt>
      <trkpt lat="60.8823442968" lon="15.1496431185">
        <ele>291.6</ele>
        <time>2011-06-24T13:52:23Z</time>
      </trkpt>
      <trkpt lat="60.8823445482" lon="15.149815618">
        <ele>291.6</ele>
        <time>2011-06-24T13:52:29Z</time>
      </trkpt>
      <trkpt lat="60.8823690234" lon="15.1500048813">
        <ele>291.8</ele>
        <time>2011-06-24T13:52:35Z</time>
      </trkpt>
      <trkpt lat="60.8823867092" lon="15.1501599464">
        <ele>292.2</ele>
        <time>2011-06-24T13:52:39Z</time>
      </trkpt>
      <trkpt lat="60.8823888047" lon="15.150329177">
        <ele>292.8</ele>
        <time>2011-06-24T13:52:44Z</time>
      </trkpt>
      <trkpt lat="60.8823945043" lon="15.1503919574">
        <ele>293</ele>
        <time>2011-06-24T13:52:46Z</time>
      </trkpt>
      <trkpt lat="60.8824084183" lon="15.1505867528">
        <ele>294</ele>
        <time>2011-06-24T13:52:51Z</time>
      </trkpt>
      <trkpt lat="60.882416884" lon="15.1507680533">
        <ele>294.8</ele>
        <time>2011-06-24T13:52:56Z</time>
      </trkpt>
      <trkpt lat="60.8824456339" lon="15.1509752538">
        <ele>295.6</ele>
        <time>2011-06-24T13:53:01Z</time>
      </trkpt>
      <trkpt lat="60.882495171" lon="15.1512938499">
        <ele>297.8</ele>
        <time>2011-06-24T13:53:11Z</time>
      </trkpt>
      <trkpt lat="60.882510426" lon="15.1513728074">
        <ele>298.8</ele>
        <time>2011-06-24T13:53:16Z</time>
      </trkpt>
      <trkpt lat="60.8825367452" lon="15.1514855439">
        <ele>300.6</ele>
        <time>2011-06-24T13:53:24Z</time>
      </trkpt>
      <trkpt lat="60.8825665009" lon="15.151592497">
        <ele>301.6</ele>
        <time>2011-06-24T13:53:30Z</time>
      </trkpt>
      <trkpt lat="60.8826052253" lon="15.1517343187">
        <ele>303</ele>
        <time>2011-06-24T13:53:37Z</time>
      </trkpt>
      <trkpt lat="60.8826310416" lon="15.1518711113">
        <ele>303.6</ele>
        <time>2011-06-24T13:53:42Z</time>
      </trkpt>
      <trkpt lat="60.8826600429" lon="15.152006479">
        <ele>304</ele>
        <time>2011-06-24T13:53:46Z</time>
      </trkpt>
      <trkpt lat="60.8826819197" lon="15.1521110851">
        <ele>304.2</ele>
        <time>2011-06-24T13:53:49Z</time>
      </trkpt>
      <trkpt lat="60.8826957498" lon="15.1521786432">
        <ele>304.2</ele>
        <time>2011-06-24T13:53:51Z</time>
      </trkpt>
      <trkpt lat="60.882743359" lon="15.1523275058">
        <ele>304.8</ele>
        <time>2011-06-24T13:53:55Z</time>
      </trkpt>
      <trkpt lat="60.8828018647" lon="15.1525849139">
        <ele>305.6</ele>
        <time>2011-06-24T13:54:01Z</time>
      </trkpt>
      <trkpt lat="60.8828106657" lon="15.152629338">
        <ele>305.8</ele>
        <time>2011-06-24T13:54:02Z</time>
      </trkpt>
      <trkpt lat="60.882881828" lon="15.1528783642">
        <ele>306.2</ele>
        <time>2011-06-24T13:54:08Z</time>
      </trkpt>
      <trkpt lat="60.882891551" lon="15.1529214472">
        <ele>306.2</ele>
        <time>2011-06-24T13:54:09Z</time>
      </trkpt>
      <trkpt lat="60.8829529903" lon="15.1531540449">
        <ele>307</ele>
        <time>2011-06-24T13:54:15Z</time>
      </trkpt>
      <trkpt lat="60.8830106578" lon="15.1533806077">
        <ele>308</ele>
        <time>2011-06-24T13:54:21Z</time>
      </trkpt>
      <trkpt lat="60.8830590214" lon="15.1535510117">
        <ele>308.8</ele>
        <time>2011-06-24T13:54:26Z</time>
      </trkpt>
      <trkpt lat="60.8831337041" lon="15.1537775745">
        <ele>309.8</ele>
        <time>2011-06-24T13:54:33Z</time>
      </trkpt>
      <trkpt lat="60.8831829059" lon="15.1539290354">
        <ele>310.4</ele>
        <time>2011-06-24T13:54:38Z</time>
      </trkpt>
      <trkpt lat="60.8832761126" lon="15.1541211485">
        <ele>310.6</ele>
        <time>2011-06-24T13:54:44Z</time>
      </trkpt>
      <trkpt lat="60.8832875958" lon="15.1541517425">
        <ele>310.6</ele>
        <time>2011-06-24T13:54:45Z</time>
      </trkpt>
      <trkpt lat="60.8833758572" lon="15.1543148543">
        <ele>311.2</ele>
        <time>2011-06-24T13:54:51Z</time>
      </trkpt>
      <trkpt lat="60.8833988236" lon="15.1543717674">
        <ele>311.6</ele>
        <time>2011-06-24T13:54:53Z</time>
      </trkpt>
      <trkpt lat="60.8834396435" lon="15.1545106554">
        <ele>312.2</ele>
        <time>2011-06-24T13:54:57Z</time>
      </trkpt>
      <trkpt lat="60.883461604" lon="15.1546537345">
        <ele>312.4</ele>
        <time>2011-06-24T13:55:01Z</time>
      </trkpt>
      <trkpt lat="60.8835105543" lon="15.1547992443">
        <ele>312.8</ele>
        <time>2011-06-24T13:55:05Z</time>
      </trkpt>
      <trkpt lat="60.8835313414" lon="15.1548590072">
        <ele>313.4</ele>
        <time>2011-06-24T13:55:07Z</time>
      </trkpt>
      <trkpt lat="60.8835636118" lon="15.1549143277">
        <ele>313.6</ele>
        <time>2011-06-24T13:55:09Z</time>
      </trkpt>
      <trkpt lat="60.8836428207" lon="15.155112392">
        <ele>314.4</ele>
        <time>2011-06-24T13:55:15Z</time>
      </trkpt>
      <trkpt lat="60.8836709839" lon="15.1553066845">
        <ele>314.8</ele>
        <time>2011-06-24T13:55:21Z</time>
      </trkpt>
      <trkpt lat="60.8836773541" lon="15.1554320777">
        <ele>314.8</ele>
        <time>2011-06-24T13:55:24Z</time>
      </trkpt>
      <trkpt lat="60.8836733308" lon="15.1555164834">
        <ele>315.2</ele>
        <time>2011-06-24T13:55:26Z</time>
      </trkpt>
      <trkpt lat="60.8836855684" lon="15.1557047409">
        <ele>316</ele>
        <time>2011-06-24T13:55:31Z</time>
      </trkpt>
      <trkpt lat="60.8836982251" lon="15.1557391067">
        <ele>316.2</ele>
        <time>2011-06-24T13:55:32Z</time>
      </trkpt>
      <trkpt lat="60.8837176711" lon="15.155863997">
        <ele>316.6</ele>
        <time>2011-06-24T13:55:36Z</time>
      </trkpt>
      <trkpt lat="60.883739464" lon="15.1559485704">
        <ele>316.6</ele>
        <time>2011-06-24T13:55:38Z</time>
      </trkpt>
      <trkpt lat="60.8837507796" lon="15.1560218282">
        <ele>317.2</ele>
        <time>2011-06-24T13:55:40Z</time>
      </trkpt>
      <trkpt lat="60.8837563955" lon="15.156114532">
        <ele>317.8</ele>
        <time>2011-06-24T13:55:43Z</time>
      </trkpt>
      <trkpt lat="60.883789504" lon="15.156209918">
        <ele>318.2</ele>
        <time>2011-06-24T13:55:46Z</time>
      </trkpt>
      <trkpt lat="60.8838247918" lon="15.156381747">
        <ele>319.2</ele>
        <time>2011-06-24T13:55:51Z</time>
      </trkpt>
      <trkpt lat="60.8838695511" lon="15.1566075554">
        <ele>320.4</ele>
        <time>2011-06-24T13:55:58Z</time>
      </trkpt>
      <trkpt lat="60.8838846385" lon="15.1566810646">
        <ele>321</ele>
        <time>2011-06-24T13:56:00Z</time>
      </trkpt>
      <trkpt lat="60.8839013185" lon="15.1567411628">
        <ele>321.4</ele>
        <time>2011-06-24T13:56:02Z</time>
      </trkpt>
      <trkpt lat="60.8839704692" lon="15.1568985749">
        <ele>322.2</ele>
        <time>2011-06-24T13:56:08Z</time>
      </trkpt>
      <trkpt lat="60.884039536" lon="15.1570351161">
        <ele>322.8</ele>
        <time>2011-06-24T13:56:13Z</time>
      </trkpt>
      <trkpt lat="60.8841239418" lon="15.1571945398">
        <ele>323.8</ele>
        <time>2011-06-24T13:56:19Z</time>
      </trkpt>
      <trkpt lat="60.8841532784" lon="15.1572483516">
        <ele>324</ele>
        <time>2011-06-24T13:56:21Z</time>
      </trkpt>
      <trkpt lat="60.8842389414" lon="15.157341726">
        <ele>324.6</ele>
        <time>2011-06-24T13:56:26Z</time>
      </trkpt>
      <trkpt lat="60.8843745606" lon="15.157510286">
        <ele>325.2</ele>
        <time>2011-06-24T13:56:34Z</time>
      </trkpt>
      <trkpt lat="60.8843925817" lon="15.1575381977">
        <ele>325.2</ele>
        <time>2011-06-24T13:56:35Z</time>
      </trkpt>
      <trkpt lat="60.8844275342" lon="15.1577488349">
        <ele>325.4</ele>
        <time>2011-06-24T13:56:41Z</time>
      </trkpt>
      <trkpt lat="60.8844229241" lon="15.157916389">
        <ele>326</ele>
        <time>2011-06-24T13:56:45Z</time>
      </trkpt>
      <trkpt lat="60.8844256064" lon="15.158056283">
        <ele>326.4</ele>
        <time>2011-06-24T13:56:48Z</time>
      </trkpt>
      <trkpt lat="60.8844184817" lon="15.1582458815">
        <ele>327</ele>
        <time>2011-06-24T13:56:53Z</time>
      </trkpt>
      <trkpt lat="60.8844011312" lon="15.1584032936">
        <ele>327.2</ele>
        <time>2011-06-24T13:56:59Z</time>
      </trkpt>
      <trkpt lat="60.8843976108" lon="15.1584255895">
        <ele>327.2</ele>
        <time>2011-06-24T13:57:00Z</time>
      </trkpt>
      <trkpt lat="60.8843883907" lon="15.1584802395">
        <ele>327.4</ele>
        <time>2011-06-24T13:57:02Z</time>
      </trkpt>
      <trkpt lat="60.8844836091" lon="15.1587814849">
        <ele>327.4</ele>
        <time>2011-06-24T13:57:12Z</time>
      </trkpt>
      <trkpt lat="60.8845359122" lon="15.1588421699">
        <ele>327.6</ele>
        <time>2011-06-24T13:57:15Z</time>
      </trkpt>
      <trkpt lat="60.8845983573" lon="15.1589311857">
        <ele>327.6</ele>
        <time>2011-06-24T13:57:20Z</time>
      </trkpt>
      <trkpt lat="60.8846663345" lon="15.1590562436">
        <ele>327.6</ele>
        <time>2011-06-24T13:57:25Z</time>
      </trkpt>
      <trkpt lat="60.8847234153" lon="15.1591603468">
        <ele>327.6</ele>
        <time>2011-06-24T13:57:29Z</time>
      </trkpt>
      <trkpt lat="60.8847763889" lon="15.1593071977">
        <ele>327.6</ele>
        <time>2011-06-24T13:57:34Z</time>
      </trkpt>
      <trkpt lat="60.8848427735" lon="15.1594633525">
        <ele>327.6</ele>
        <time>2011-06-24T13:57:39Z</time>
      </trkpt>
      <trkpt lat="60.8848568551" lon="15.1594833853">
        <ele>327.6</ele>
        <time>2011-06-24T13:57:40Z</time>
      </trkpt>
      <trkpt lat="60.8849636405" lon="15.1596356006">
        <ele>327.6</ele>
        <time>2011-06-24T13:57:46Z</time>
      </trkpt>
      <trkpt lat="60.8850666541" lon="15.1597085231">
        <ele>327.6</ele>
        <time>2011-06-24T13:57:52Z</time>
      </trkpt>
      <trkpt lat="60.8850798136" lon="15.1597203416">
        <ele>327.6</ele>
        <time>2011-06-24T13:57:53Z</time>
      </trkpt>
      <trkpt lat="60.8851136765" lon="15.1597660229">
        <ele>327.4</ele>
        <time>2011-06-24T13:57:55Z</time>
      </trkpt>
      <trkpt lat="60.8851252435" lon="15.1599381871">
        <ele>326.6</ele>
        <time>2011-06-24T13:58:00Z</time>
      </trkpt>
      <trkpt lat="60.8851217231" lon="15.1599681943">
        <ele>326.6</ele>
        <time>2011-06-24T13:58:01Z</time>
      </trkpt>
      <trkpt lat="60.8851090665" lon="15.1600436314">
        <ele>326.2</ele>
        <time>2011-06-24T13:58:04Z</time>
      </trkpt>
      <trkpt lat="60.885086603" lon="15.1601662586">
        <ele>326</ele>
        <time>2011-06-24T13:58:09Z</time>
      </trkpt>
      <trkpt lat="60.8850368983" lon="15.1603183901">
        <ele>325.8</ele>
        <time>2011-06-24T13:58:15Z</time>
      </trkpt>
      <trkpt lat="60.8849903788" lon="15.1604619721">
        <ele>325.6</ele>
        <time>2011-06-24T13:58:21Z</time>
      </trkpt>
      <trkpt lat="60.8849480502" lon="15.1605457073">
        <ele>325.6</ele>
        <time>2011-06-24T13:58:24Z</time>
      </trkpt>
      <trkpt lat="60.8849265925" lon="15.1605765526">
        <ele>325.4</ele>
        <time>2011-06-24T13:58:26Z</time>
      </trkpt>
      <trkpt lat="60.8848954118" lon="15.1606669933">
        <ele>324.8</ele>
        <time>2011-06-24T13:58:29Z</time>
      </trkpt>
      <trkpt lat="60.8848632254" lon="15.1608557537">
        <ele>324.4</ele>
        <time>2011-06-24T13:58:34Z</time>
      </trkpt>
      <trkpt lat="60.8848492276" lon="15.1608970765">
        <ele>324.2</ele>
        <time>2011-06-24T13:58:35Z</time>
      </trkpt>
      <trkpt lat="60.8848352298" lon="15.1609373096">
        <ele>324.2</ele>
        <time>2011-06-24T13:58:36Z</time>
      </trkpt>
      <trkpt lat="60.884735569" lon="15.1610533989">
        <ele>323.8</ele>
        <time>2011-06-24T13:58:42Z</time>
      </trkpt>
      <trkpt lat="60.8847110939" lon="15.1611046962">
        <ele>323.8</ele>
        <time>2011-06-24T13:58:44Z</time>
      </trkpt>
      <trkpt lat="60.8846518338" lon="15.1613269003">
        <ele>324</ele>
        <time>2011-06-24T13:58:51Z</time>
      </trkpt>
      <trkpt lat="60.8846402668" lon="15.1613963863">
        <ele>324.4</ele>
        <time>2011-06-24T13:58:53Z</time>
      </trkpt>
      <trkpt lat="60.8845718705" lon="15.1615542175">
        <ele>325.4</ele>
        <time>2011-06-24T13:58:59Z</time>
      </trkpt>
      <trkpt lat="60.8845273626" lon="15.1617424749">
        <ele>326.6</ele>
        <time>2011-06-24T13:59:05Z</time>
      </trkpt>
      <trkpt lat="60.8844994509" lon="15.1618984621">
        <ele>328</ele>
        <time>2011-06-24T13:59:10Z</time>
      </trkpt>
      <trkpt lat="60.8844370896" lon="15.1620779186">
        <ele>329.4</ele>
        <time>2011-06-24T13:59:16Z</time>
      </trkpt>
      <trkpt lat="60.8843923302" lon="15.1622644997">
        <ele>330.6</ele>
        <time>2011-06-24T13:59:22Z</time>
      </trkpt>
      <trkpt lat="60.8843598923" lon="15.1624126078">
        <ele>331</ele>
        <time>2011-06-24T13:59:27Z</time>
      </trkpt>
      <trkpt lat="60.8843536058" lon="15.1624429503">
        <ele>331.4</ele>
        <time>2011-06-24T13:59:28Z</time>
      </trkpt>
      <trkpt lat="60.884310942" lon="15.1626314593">
        <ele>332.6</ele>
        <time>2011-06-24T13:59:34Z</time>
      </trkpt>
      <trkpt lat="60.884301219" lon="15.1626597901">
        <ele>332.6</ele>
        <time>2011-06-24T13:59:35Z</time>
      </trkpt>
      <trkpt lat="60.8842218424" lon="15.1628041264">
        <ele>333.2</ele>
        <time>2011-06-24T13:59:41Z</time>
      </trkpt>
      <trkpt lat="60.884193763" lon="15.1628985066">
        <ele>333.6</ele>
        <time>2011-06-24T13:59:44Z</time>
      </trkpt>
      <trkpt lat="60.8841441422" lon="15.1631471137">
        <ele>334.8</ele>
        <time>2011-06-24T13:59:51Z</time>
      </trkpt>
      <trkpt lat="60.8841380234" lon="15.1632259874">
        <ele>335</ele>
        <time>2011-06-24T13:59:53Z</time>
      </trkpt>
      <trkpt lat="60.8842246922" lon="15.1632699924">
        <ele>335.6</ele>
        <time>2011-06-24T13:59:59Z</time>
      </trkpt>
      <trkpt lat="60.8842616564" lon="15.1633121534">
        <ele>336.2</ele>
        <time>2011-06-24T14:00:02Z</time>
      </trkpt>
      <trkpt lat="60.8842870535" lon="15.1633381372">
        <ele>336.6</ele>
        <time>2011-06-24T14:00:04Z</time>
      </trkpt>
      <trkpt lat="60.8843366744" lon="15.1634136582">
        <ele>337</ele>
        <time>2011-06-24T14:00:09Z</time>
      </trkpt>
      <trkpt lat="60.8843151329" lon="15.1635237125">
        <ele>338</ele>
        <time>2011-06-24T14:00:13Z</time>
      </trkpt>
      <trkpt lat="60.8842603991" lon="15.1636242115">
        <ele>338.8</ele>
        <time>2011-06-24T14:00:18Z</time>
      </trkpt>
      <trkpt lat="60.8842548671" lon="15.1636594155">
        <ele>339</ele>
        <time>2011-06-24T14:00:19Z</time>
      </trkpt>
      <trkpt lat="60.8842431324" lon="15.1636909314">
        <ele>339</ele>
        <time>2011-06-24T14:00:20Z</time>
      </trkpt>
      <trkpt lat="60.8842321521" lon="15.1637548853">
        <ele>339.2</ele>
        <time>2011-06-24T14:00:22Z</time>
      </trkpt>
      <trkpt lat="60.8841923381" lon="15.1639540393">
        <ele>339.8</ele>
        <time>2011-06-24T14:00:28Z</time>
      </trkpt>
      <trkpt lat="60.8841578885" lon="15.1641410394">
        <ele>340.8</ele>
        <time>2011-06-24T14:00:33Z</time>
      </trkpt>
      <trkpt lat="60.8841255343" lon="15.1642790055">
        <ele>341.2</ele>
        <time>2011-06-24T14:00:37Z</time>
      </trkpt>
      <trkpt lat="60.8841021488" lon="15.1644821828">
        <ele>342.2</ele>
        <time>2011-06-24T14:00:43Z</time>
      </trkpt>
      <trkpt lat="60.8840909171" lon="15.1645559435">
        <ele>342.6</ele>
        <time>2011-06-24T14:00:45Z</time>
      </trkpt>
      <trkpt lat="60.8840930964" lon="15.1646556881">
        <ele>343</ele>
        <time>2011-06-24T14:00:48Z</time>
      </trkpt>
      <trkpt lat="60.8841293062" lon="15.1647102543">
        <ele>343.8</ele>
        <time>2011-06-24T14:00:51Z</time>
      </trkpt>
      <trkpt lat="60.8841599839" lon="15.1647897985">
        <ele>344.6</ele>
        <time>2011-06-24T14:00:54Z</time>
      </trkpt>
      <trkpt lat="60.8842239378" lon="15.1649013616">
        <ele>346.2</ele>
        <time>2011-06-24T14:01:00Z</time>
      </trkpt>
      <trkpt lat="60.8842479101" lon="15.1649677462">
        <ele>347.2</ele>
        <time>2011-06-24T14:01:04Z</time>
      </trkpt>
      <trkpt lat="60.8842909092" lon="15.165022983">
        <ele>348.4</ele>
        <time>2011-06-24T14:01:09Z</time>
      </trkpt>
      <trkpt lat="60.8843983652" lon="15.1650995097">
        <ele>350</ele>
        <time>2011-06-24T14:01:15Z</time>
      </trkpt>
      <trkpt lat="60.884469779" lon="15.1651328697">
        <ele>351.2</ele>
        <time>2011-06-24T14:01:20Z</time>
      </trkpt>
      <trkpt lat="60.884531805" lon="15.1651019405">
        <ele>352</ele>
        <time>2011-06-24T14:01:24Z</time>
      </trkpt>
      <trkpt lat="60.884546641" lon="15.1651093165">
        <ele>352.2</ele>
        <time>2011-06-24T14:01:25Z</time>
      </trkpt>
      <trkpt lat="60.8845937473" lon="15.1651343784">
        <ele>352.8</ele>
        <time>2011-06-24T14:01:27Z</time>
      </trkpt>
      <trkpt lat="60.884686032" lon="15.1652570056">
        <ele>354.4</ele>
        <time>2011-06-24T14:01:33Z</time>
      </trkpt>
      <trkpt lat="60.8847512432" lon="15.1653909484">
        <ele>356</ele>
        <time>2011-06-24T14:01:39Z</time>
      </trkpt>
      <trkpt lat="60.8847645704" lon="15.1654104782">
        <ele>356.4</ele>
        <time>2011-06-24T14:01:40Z</time>
      </trkpt>
      <trkpt lat="60.8848233275" lon="15.1655284115">
        <ele>358.2</ele>
        <time>2011-06-24T14:01:46Z</time>
      </trkpt>
      <trkpt lat="60.884828189" lon="15.165514749">
        <ele>360</ele>
        <time>2011-06-24T14:01:52Z</time>
      </trkpt>
      <trkpt lat="60.8847925659" lon="15.1654854124">
        <ele>364.8</ele>
        <time>2011-06-24T14:02:10Z</time>
      </trkpt>
      <trkpt lat="60.8847468846" lon="15.1654580874">
        <ele>366</ele>
        <time>2011-06-24T14:02:14Z</time>
      </trkpt>
      <trkpt lat="60.8847024605" lon="15.1653642101">
        <ele>366.8</ele>
        <time>2011-06-24T14:02:19Z</time>
      </trkpt>
      <trkpt lat="60.8846282807" lon="15.1652846659">
        <ele>367.2</ele>
        <time>2011-06-24T14:02:24Z</time>
      </trkpt>
      <trkpt lat="60.884562399" lon="15.1652670639">
        <ele>367.4</ele>
        <time>2011-06-24T14:02:28Z</time>
      </trkpt>
      <trkpt lat="60.8845476468" lon="15.1652650522">
        <ele>367.4</ele>
        <time>2011-06-24T14:02:29Z</time>
      </trkpt>
      <trkpt lat="60.8844691084" lon="15.1652413315">
        <ele>368.2</ele>
        <time>2011-06-24T14:02:34Z</time>
      </trkpt>
      <trkpt lat="60.8844361675" lon="15.165235045">
        <ele>369.2</ele>
        <time>2011-06-24T14:02:44Z</time>
      </trkpt>
      <trkpt lat="60.884459553" lon="15.1652483723">
        <ele>370.2</ele>
        <time>2011-06-24T14:02:49Z</time>
      </trkpt>
      <trkpt lat="60.8845131134" lon="15.165264717">
        <ele>371</ele>
        <time>2011-06-24T14:02:55Z</time>
      </trkpt>
      <trkpt lat="60.884582767" lon="15.1652609451">
        <ele>371.4</ele>
        <time>2011-06-24T14:03:01Z</time>
      </trkpt>
      <trkpt lat="60.8845969324" lon="15.1652675668">
        <ele>371.6</ele>
        <time>2011-06-24T14:03:02Z</time>
      </trkpt>
      <trkpt lat="60.8846509956" lon="15.1653440935">
        <ele>371.8</ele>
        <time>2011-06-24T14:03:09Z</time>
      </trkpt>
      <trkpt lat="60.8846762252" lon="15.1653750228">
        <ele>371.8</ele>
        <time>2011-06-24T14:03:12Z</time>
      </trkpt>
      <trkpt lat="60.8847266004" lon="15.1654600152">
        <ele>371.8</ele>
        <time>2011-06-24T14:03:19Z</time>
      </trkpt>
      <trkpt lat="60.8847365748" lon="15.1654699059">
        <ele>371.8</ele>
        <time>2011-06-24T14:03:20Z</time>
      </trkpt>
      <trkpt lat="60.8847663306" lon="15.1654957221">
        <ele>372</ele>
        <time>2011-06-24T14:03:23Z</time>
      </trkpt>
      <trkpt lat="60.8848043006" lon="15.1655971431">
        <ele>372</ele>
        <time>2011-06-24T14:03:30Z</time>
      </trkpt>
      <trkpt lat="60.8848061446" lon="15.1656130687">
        <ele>372</ele>
        <time>2011-06-24T14:03:31Z</time>
      </trkpt>
      <trkpt lat="60.8848074857" lon="15.1656773579">
        <ele>372</ele>
        <time>2011-06-24T14:03:34Z</time>
      </trkpt>
      <trkpt lat="60.8848070666" lon="15.1657131486">
        <ele>372</ele>
        <time>2011-06-24T14:03:36Z</time>
      </trkpt>
      <trkpt lat="60.8847835135" lon="15.1658885818">
        <ele>372</ele>
        <time>2011-06-24T14:03:43Z</time>
      </trkpt>
      <trkpt lat="60.88474437" lon="15.1659533739">
        <ele>372</ele>
        <time>2011-06-24T14:03:46Z</time>
      </trkpt>
      <trkpt lat="60.8847181347" lon="15.1661293938">
        <ele>372</ele>
        <time>2011-06-24T14:03:51Z</time>
      </trkpt>
      <trkpt lat="60.8847048913" lon="15.1663132926">
        <ele>372</ele>
        <time>2011-06-24T14:03:56Z</time>
      </trkpt>
      <trkpt lat="60.8847007003" lon="15.1663196629">
        <ele>372</ele>
        <time>2011-06-24T14:03:57Z</time>
      </trkpt>
      <trkpt lat="60.8847118482" lon="15.1662677789">
        <ele>372</ele>
        <time>2011-06-24T14:04:02Z</time>
      </trkpt>
      <trkpt lat="60.8846399315" lon="15.1664878038">
        <ele>372</ele>
        <time>2011-06-24T14:04:20Z</time>
      </trkpt>
      <trkpt lat="60.8846320526" lon="15.1665277016">
        <ele>372</ele>
        <time>2011-06-24T14:04:21Z</time>
      </trkpt>
      <trkpt lat="60.8845681825" lon="15.1668028794">
        <ele>372</ele>
        <time>2011-06-24T14:04:28Z</time>
      </trkpt>
      <trkpt lat="60.8845233393" lon="15.1669935677">
        <ele>372</ele>
        <time>2011-06-24T14:04:33Z</time>
      </trkpt>
      <trkpt lat="60.8845025522" lon="15.1671186256">
        <ele>372</ele>
        <time>2011-06-24T14:04:36Z</time>
      </trkpt>
      <trkpt lat="60.8844028914" lon="15.1671051307">
        <ele>372</ele>
        <time>2011-06-24T14:04:42Z</time>
      </trkpt>
      <trkpt lat="60.8843282925" lon="15.1670583597">
        <ele>372</ele>
        <time>2011-06-24T14:04:46Z</time>
      </trkpt>
      <trkpt lat="60.8843060805" lon="15.167042937">
        <ele>372</ele>
        <time>2011-06-24T14:04:47Z</time>
      </trkpt>
      <trkpt lat="60.884186806" lon="15.1669830903">
        <ele>372</ele>
        <time>2011-06-24T14:04:53Z</time>
      </trkpt>
      <trkpt lat="60.8841712157" lon="15.1669726967">
        <ele>372</ele>
        <time>2011-06-24T14:04:54Z</time>
      </trkpt>
      <trkpt lat="60.8840629215" lon="15.166893823">
        <ele>372</ele>
        <time>2011-06-24T14:05:00Z</time>
      </trkpt>
      <trkpt lat="60.8840401228" lon="15.1668766401">
        <ele>372</ele>
        <time>2011-06-24T14:05:01Z</time>
      </trkpt>
      <trkpt lat="60.8839113768" lon="15.1667695195">
        <ele>372</ele>
        <time>2011-06-24T14:05:07Z</time>
      </trkpt>
      <trkpt lat="60.8838972952" lon="15.1667329744">
        <ele>372</ele>
        <time>2011-06-24T14:05:08Z</time>
      </trkpt>
      <trkpt lat="60.8838884104" lon="15.1666516699">
        <ele>372</ele>
        <time>2011-06-24T14:05:10Z</time>
      </trkpt>
      <trkpt lat="60.8838630132" lon="15.1664648374">
        <ele>372</ele>
        <time>2011-06-24T14:05:15Z</time>
      </trkpt>
      <trkpt lat="60.8838592414" lon="15.1662435552">
        <ele>372</ele>
        <time>2011-06-24T14:05:21Z</time>
      </trkpt>
      <trkpt lat="60.8838213552" lon="15.166093603">
        <ele>371.8</ele>
        <time>2011-06-24T14:05:26Z</time>
      </trkpt>
      <trkpt lat="60.883759832" lon="15.1659422259">
        <ele>371</ele>
        <time>2011-06-24T14:05:31Z</time>
      </trkpt>
      <trkpt lat="60.8836976383" lon="15.1658006556">
        <ele>370.6</ele>
        <time>2011-06-24T14:05:36Z</time>
      </trkpt>
      <trkpt lat="60.883676013" lon="15.1657913517">
        <ele>370.2</ele>
        <time>2011-06-24T14:05:37Z</time>
      </trkpt>
      <trkpt lat="60.8836546392" lon="15.1657899268">
        <ele>370</ele>
        <time>2011-06-24T14:05:38Z</time>
      </trkpt>
      <trkpt lat="60.8836082035" lon="15.165744916">
        <ele>369.4</ele>
        <time>2011-06-24T14:05:41Z</time>
      </trkpt>
      <trkpt lat="60.883586662" lon="15.1657137353">
        <ele>368.6</ele>
        <time>2011-06-24T14:05:47Z</time>
      </trkpt>
      <trkpt lat="60.883569982" lon="15.1657417309">
        <ele>367</ele>
        <time>2011-06-24T14:05:55Z</time>
      </trkpt>
      <trkpt lat="60.8835494463" lon="15.1657657031">
        <ele>366.8</ele>
        <time>2011-06-24T14:05:57Z</time>
      </trkpt>
      <trkpt lat="60.8834313454" lon="15.1658152401">
        <ele>366.2</ele>
        <time>2011-06-24T14:06:03Z</time>
      </trkpt>
      <trkpt lat="60.8834082113" lon="15.1658102948">
        <ele>366</ele>
        <time>2011-06-24T14:06:04Z</time>
      </trkpt>
      <trkpt lat="60.8833084667" lon="15.1658002365">
        <ele>365</ele>
        <time>2011-06-24T14:06:09Z</time>
      </trkpt>
      <trkpt lat="60.88319858" lon="15.1657763481">
        <ele>364.4</ele>
        <time>2011-06-24T14:06:13Z</time>
      </trkpt>
      <trkpt lat="60.8830549981" lon="15.1657513701">
        <ele>363.4</ele>
        <time>2011-06-24T14:06:19Z</time>
      </trkpt>
      <trkpt lat="60.8829555049" lon="15.1658398829">
        <ele>362</ele>
        <time>2011-06-24T14:06:24Z</time>
      </trkpt>
      <trkpt lat="60.8828558441" lon="15.1659178346">
        <ele>361</ele>
        <time>2011-06-24T14:06:29Z</time>
      </trkpt>
      <trkpt lat="60.8828343026" lon="15.1659123026">
        <ele>360.6</ele>
        <time>2011-06-24T14:06:30Z</time>
      </trkpt>
      <trkpt lat="60.8827626374" lon="15.1658182576">
        <ele>359.4</ele>
        <time>2011-06-24T14:06:34Z</time>
      </trkpt>
      <trkpt lat="60.8827444487" lon="15.1657956265">
        <ele>359.2</ele>
        <time>2011-06-24T14:06:35Z</time>
      </trkpt>
      <trkpt lat="60.8826397587" lon="15.1656557326">
        <ele>358</ele>
        <time>2011-06-24T14:06:41Z</time>
      </trkpt>
      <trkpt lat="60.8826311254" lon="15.1656123143">
        <ele>357.8</ele>
        <time>2011-06-24T14:06:42Z</time>
      </trkpt>
      <trkpt lat="60.8825667524" lon="15.1654413236">
        <ele>356.6</ele>
        <time>2011-06-24T14:06:47Z</time>
      </trkpt>
      <trkpt lat="60.8825055645" lon="15.1652514736">
        <ele>356</ele>
        <time>2011-06-24T14:06:53Z</time>
      </trkpt>
      <trkpt lat="60.8824385931" lon="15.165071598">
        <ele>354.8</ele>
        <time>2011-06-24T14:06:58Z</time>
      </trkpt>
      <trkpt lat="60.8824300436" lon="15.1650384895">
        <ele>354.8</ele>
        <time>2011-06-24T14:06:59Z</time>
      </trkpt>
      <trkpt lat="60.8822675186" lon="15.1646986872">
        <ele>353.6</ele>
        <time>2011-06-24T14:07:11Z</time>
      </trkpt>
      <trkpt lat="60.8821920815" lon="15.1644694423">
        <ele>353</ele>
        <time>2011-06-24T14:07:17Z</time>
      </trkpt>
      <trkpt lat="60.8821077595" lon="15.1643408639">
        <ele>352</ele>
        <time>2011-06-24T14:07:22Z</time>
      </trkpt>
      <trkpt lat="60.8820225156" lon="15.1642409517">
        <ele>351.6</ele>
        <time>2011-06-24T14:07:27Z</time>
      </trkpt>
      <trkpt lat="60.8819215975" lon="15.1641556239">
        <ele>351</ele>
        <time>2011-06-24T14:07:33Z</time>
      </trkpt>
      <trkpt lat="60.8818317436" lon="15.1641237727">
        <ele>350.2</ele>
        <time>2011-06-24T14:07:38Z</time>
      </trkpt>
      <trkpt lat="60.88181674" lon="15.1641302268">
        <ele>350</ele>
        <time>2011-06-24T14:07:39Z</time>
      </trkpt>
      <trkpt lat="60.881722276" lon="15.1641869723">
        <ele>349.4</ele>
        <time>2011-06-24T14:07:45Z</time>
      </trkpt>
      <trkpt lat="60.8816358586" lon="15.1641938454">
        <ele>349.2</ele>
        <time>2011-06-24T14:07:50Z</time>
      </trkpt>
      <trkpt lat="60.8815488545" lon="15.1642354196">
        <ele>349</ele>
        <time>2011-06-24T14:07:55Z</time>
      </trkpt>
      <trkpt lat="60.8814492775" lon="15.1642516805">
        <ele>349</ele>
        <time>2011-06-24T14:08:00Z</time>
      </trkpt>
      <trkpt lat="60.881367051" lon="15.1643322306">
        <ele>348</ele>
        <time>2011-06-24T14:08:05Z</time>
      </trkpt>
      <trkpt lat="60.8812474413" lon="15.164391323">
        <ele>347.4</ele>
        <time>2011-06-24T14:08:12Z</time>
      </trkpt>
      <trkpt lat="60.8812167636" lon="15.1643953463">
        <ele>347.2</ele>
        <time>2011-06-24T14:08:14Z</time>
      </trkpt>
      <trkpt lat="60.8811571683" lon="15.1644800873">
        <ele>347</ele>
        <time>2011-06-24T14:08:18Z</time>
      </trkpt>
      <trkpt lat="60.8811409074" lon="15.1645123576">
        <ele>347</ele>
        <time>2011-06-24T14:08:19Z</time>
      </trkpt>
      <trkpt lat="60.8811014286" lon="15.1645581228">
        <ele>347</ele>
        <time>2011-06-24T14:08:21Z</time>
      </trkpt>
      <trkpt lat="60.8809905361" lon="15.1646759723">
        <ele>346.8</ele>
        <time>2011-06-24T14:08:27Z</time>
      </trkpt>
      <trkpt lat="60.8809096508" lon="15.1647337236">
        <ele>346.8</ele>
        <time>2011-06-24T14:08:31Z</time>
      </trkpt>
      <trkpt lat="60.8808006861" lon="15.1647457935">
        <ele>346.8</ele>
        <time>2011-06-24T14:08:36Z</time>
      </trkpt>
      <trkpt lat="60.8807040428" lon="15.1647295326">
        <ele>346.8</ele>
        <time>2011-06-24T14:08:40Z</time>
      </trkpt>
      <trkpt lat="60.8806542543" lon="15.1647244197">
        <ele>346.8</ele>
        <time>2011-06-24T14:08:42Z</time>
      </trkpt>
      <trkpt lat="60.8805256759" lon="15.1647949953">
        <ele>346.8</ele>
        <time>2011-06-24T14:08:47Z</time>
      </trkpt>
      <trkpt lat="60.8805008655" lon="15.1648195542">
        <ele>346.8</ele>
        <time>2011-06-24T14:08:48Z</time>
      </trkpt>
      <trkpt lat="60.8803641567" lon="15.1649606216">
        <ele>347.2</ele>
        <time>2011-06-24T14:08:55Z</time>
      </trkpt>
      <trkpt lat="60.8803429505" lon="15.1649645611">
        <ele>347.4</ele>
        <time>2011-06-24T14:08:56Z</time>
      </trkpt>
      <trkpt lat="60.8802406913" lon="15.1649799">
        <ele>347.8</ele>
        <time>2011-06-24T14:09:00Z</time>
      </trkpt>
      <trkpt lat="60.8801152981" lon="15.1650290179">
        <ele>348.2</ele>
        <time>2011-06-24T14:09:05Z</time>
      </trkpt>
      <trkpt lat="60.8800728857" lon="15.1650736935">
        <ele>348.4</ele>
        <time>2011-06-24T14:09:08Z</time>
      </trkpt>
      <trkpt lat="60.8799839537" lon="15.1651419221">
        <ele>348.6</ele>
        <time>2011-06-24T14:09:14Z</time>
      </trkpt>
      <trkpt lat="60.8798369352" lon="15.1652143417">
        <ele>348.6</ele>
        <time>2011-06-24T14:09:20Z</time>
      </trkpt>
      <trkpt lat="60.8797000588" lon="15.1652969873">
        <ele>348.8</ele>
        <time>2011-06-24T14:09:26Z</time>
      </trkpt>
      <trkpt lat="60.8795910941" lon="15.1653153436">
        <ele>348.8</ele>
        <time>2011-06-24T14:09:31Z</time>
      </trkpt>
      <trkpt lat="60.8795135615" lon="15.1653897749">
        <ele>348.8</ele>
        <time>2011-06-24T14:09:35Z</time>
      </trkpt>
      <trkpt lat="60.8794341849" lon="15.1654145853">
        <ele>348.4</ele>
        <time>2011-06-24T14:09:39Z</time>
      </trkpt>
      <trkpt lat="60.8794184269" lon="15.1653880985">
        <ele>348.2</ele>
        <time>2011-06-24T14:09:40Z</time>
      </trkpt>
      <trkpt lat="60.8793934489" lon="15.1652555807">
        <ele>347.8</ele>
        <time>2011-06-24T14:09:43Z</time>
      </trkpt>
      <trkpt lat="60.8793659562" lon="15.1649145212">
        <ele>347.2</ele>
        <time>2011-06-24T14:09:50Z</time>
      </trkpt>
      <trkpt lat="60.8793551436" lon="15.1646779001">
        <ele>346.8</ele>
        <time>2011-06-24T14:09:55Z</time>
      </trkpt>
      <trkpt lat="60.879347097" lon="15.164421414">
        <ele>346</ele>
        <time>2011-06-24T14:10:00Z</time>
      </trkpt>
      <trkpt lat="60.8793353623" lon="15.1641952703">
        <ele>345.6</ele>
        <time>2011-06-24T14:10:04Z</time>
      </trkpt>
      <trkpt lat="60.8793308361" lon="15.1639875669">
        <ele>345.2</ele>
        <time>2011-06-24T14:10:08Z</time>
      </trkpt>
      <trkpt lat="60.8792995716" lon="15.1636904285">
        <ele>345</ele>
        <time>2011-06-24T14:10:15Z</time>
      </trkpt>
      <trkpt lat="60.8792505375" lon="15.163461435">
        <ele>344.8</ele>
        <time>2011-06-24T14:10:20Z</time>
      </trkpt>
      <trkpt lat="60.8791637848" lon="15.163178462">
        <ele>344.8</ele>
        <time>2011-06-24T14:10:27Z</time>
      </trkpt>
      <trkpt lat="60.8790986574" lon="15.1630094829">
        <ele>344.8</ele>
        <time>2011-06-24T14:10:32Z</time>
      </trkpt>
      <trkpt lat="60.8790070433" lon="15.1628229857">
        <ele>344.8</ele>
        <time>2011-06-24T14:10:38Z</time>
      </trkpt>
      <trkpt lat="60.878897408" lon="15.1626555153">
        <ele>344.8</ele>
        <time>2011-06-24T14:10:44Z</time>
      </trkpt>
      <trkpt lat="60.8787533232" lon="15.1625011207">
        <ele>344.8</ele>
        <time>2011-06-24T14:10:51Z</time>
      </trkpt>
      <trkpt lat="60.878619548" lon="15.1623681">
        <ele>344.8</ele>
        <time>2011-06-24T14:10:57Z</time>
      </trkpt>
      <trkpt lat="60.8784902153" lon="15.1622398569">
        <ele>345.6</ele>
        <time>2011-06-24T14:11:03Z</time>
      </trkpt>
      <trkpt lat="60.8784027921" lon="15.1621899008">
        <ele>346</ele>
        <time>2011-06-24T14:11:07Z</time>
      </trkpt>
      <trkpt lat="60.8782905585" lon="15.1621072552">
        <ele>346.2</ele>
        <time>2011-06-24T14:11:12Z</time>
      </trkpt>
      <trkpt lat="60.878255103" lon="15.1620765775">
        <ele>346.4</ele>
        <time>2011-06-24T14:11:14Z</time>
      </trkpt>
      <trkpt lat="60.8781252674" lon="15.1619816105">
        <ele>346.6</ele>
        <time>2011-06-24T14:11:20Z</time>
      </trkpt>
      <trkpt lat="60.8780057415" lon="15.1619277987">
        <ele>346.6</ele>
        <time>2011-06-24T14:11:25Z</time>
      </trkpt>
      <trkpt lat="60.8778467369" lon="15.1618147269">
        <ele>347.8</ele>
        <time>2011-06-24T14:11:32Z</time>
      </trkpt>
      <trkpt lat="60.8777055857" lon="15.1617216878">
        <ele>348.2</ele>
        <time>2011-06-24T14:11:38Z</time>
      </trkpt>
      <trkpt lat="60.8775936873" lon="15.1616533753">
        <ele>348.6</ele>
        <time>2011-06-24T14:11:43Z</time>
      </trkpt>
      <trkpt lat="60.8774712277" lon="15.1615713165">
        <ele>348.6</ele>
        <time>2011-06-24T14:11:49Z</time>
      </trkpt>
      <trkpt lat="60.8773074454" lon="15.1614662913">
        <ele>349.2</ele>
        <time>2011-06-24T14:11:56Z</time>
      </trkpt>
      <trkpt lat="60.8771786156" lon="15.1613655409">
        <ele>350</ele>
        <time>2011-06-24T14:12:02Z</time>
      </trkpt>
      <trkpt lat="60.8770699024" lon="15.161222881">
        <ele>350.4</ele>
        <time>2011-06-24T14:12:08Z</time>
      </trkpt>
      <trkpt lat="60.8769523881" lon="15.1610761977">
        <ele>351.6</ele>
        <time>2011-06-24T14:12:15Z</time>
      </trkpt>
      <trkpt lat="60.8769194473" lon="15.1610283371">
        <ele>352</ele>
        <time>2011-06-24T14:12:18Z</time>
      </trkpt>
      <trkpt lat="60.8768919546" lon="15.1609336216">
        <ele>353</ele>
        <time>2011-06-24T14:12:24Z</time>
      </trkpt>
      <trkpt lat="60.8769129932" lon="15.1608633813">
        <ele>353.8</ele>
        <time>2011-06-24T14:12:29Z</time>
      </trkpt>
      <trkpt lat="60.876915843" lon="15.1608539935">
        <ele>354</ele>
        <time>2011-06-24T14:12:30Z</time>
      </trkpt>
      <trkpt lat="60.8769265719" lon="15.1608268362">
        <ele>354.2</ele>
        <time>2011-06-24T14:12:32Z</time>
      </trkpt>
      <trkpt lat="60.8769625302" lon="15.1607360602">
        <ele>354.6</ele>
        <time>2011-06-24T14:12:39Z</time>
      </trkpt>
      <trkpt lat="60.8769556571" lon="15.1606849306">
        <ele>354.8</ele>
        <time>2011-06-24T14:12:42Z</time>
      </trkpt>
      <trkpt lat="60.8769453473" lon="15.1605948252">
        <ele>354.8</ele>
        <time>2011-06-24T14:12:47Z</time>
      </trkpt>
      <trkpt lat="60.8769336965" lon="15.1605706015">
        <ele>354.8</ele>
        <time>2011-06-24T14:12:49Z</time>
      </trkpt>
      <trkpt lat="60.8769323554" lon="15.1604785682">
        <ele>355</ele>
        <time>2011-06-24T14:12:54Z</time>
      </trkpt>
      <trkpt lat="60.8769667212" lon="15.1604279416">
        <ele>355</ele>
        <time>2011-06-24T14:12:59Z</time>
      </trkpt>
      <trkpt lat="60.8769872568" lon="15.1603257662">
        <ele>355</ele>
        <time>2011-06-24T14:13:04Z</time>
      </trkpt>
      <trkpt lat="60.8769800484" lon="15.1602214954">
        <ele>355</ele>
        <time>2011-06-24T14:13:09Z</time>
      </trkpt>
      <trkpt lat="60.8769746002" lon="15.1602013788">
        <ele>355</ele>
        <time>2011-06-24T14:13:10Z</time>
      </trkpt>
      <trkpt lat="60.8769628655" lon="15.1601409453">
        <ele>355</ele>
        <time>2011-06-24T14:13:14Z</time>
      </trkpt>
      <trkpt lat="60.876940402" lon="15.1600115288">
        <ele>355</ele>
        <time>2011-06-24T14:13:21Z</time>
      </trkpt>
      <trkpt lat="60.8769363787" lon="15.159998453">
        <ele>355</ele>
        <time>2011-06-24T14:13:22Z</time>
      </trkpt>
      <trkpt lat="60.876931601" lon="15.1599889815">
        <ele>355</ele>
        <time>2011-06-24T14:13:23Z</time>
      </trkpt>
      <trkpt lat="60.8769093052" lon="15.1599398635">
        <ele>355</ele>
        <time>2011-06-24T14:13:27Z</time>
      </trkpt>
      <trkpt lat="60.8768919546" lon="15.1598630853">
        <ele>355</ele>
        <time>2011-06-24T14:13:31Z</time>
      </trkpt>
      <trkpt lat="60.8768966485" lon="15.1597851337">
        <ele>355</ele>
        <time>2011-06-24T14:13:34Z</time>
      </trkpt>
      <trkpt lat="60.8768877637" lon="15.1596475029">
        <ele>355</ele>
        <time>2011-06-24T14:13:39Z</time>
      </trkpt>
      <trkpt lat="60.8768569183" lon="15.1594948685">
        <ele>355</ele>
        <time>2011-06-24T14:13:45Z</time>
      </trkpt>
      <trkpt lat="60.8768300962" lon="15.1594014103">
        <ele>355</ele>
        <time>2011-06-24T14:13:50Z</time>
      </trkpt>
      <trkpt lat="60.8768240612" lon="15.159368637">
        <ele>355</ele>
        <time>2011-06-24T14:13:52Z</time>
      </trkpt>
      <trkpt lat="60.87682557" lon="15.1592558167">
        <ele>355</ele>
        <time>2011-06-24T14:13:58Z</time>
      </trkpt>
      <trkpt lat="60.8768178586" lon="15.1592391367">
        <ele>355</ele>
        <time>2011-06-24T14:13:59Z</time>
      </trkpt>
      <trkpt lat="60.8768097282" lon="15.1592086266">
        <ele>355</ele>
        <time>2011-06-24T14:14:01Z</time>
      </trkpt>
      <trkpt lat="60.8767061279" lon="15.1589787949">
        <ele>355</ele>
        <time>2011-06-24T14:14:13Z</time>
      </trkpt>
      <trkpt lat="60.8766476222" lon="15.1588391524">
        <ele>355</ele>
        <time>2011-06-24T14:14:20Z</time>
      </trkpt>
      <trkpt lat="60.8765842551" lon="15.1587063831">
        <ele>355</ele>
        <time>2011-06-24T14:14:27Z</time>
      </trkpt>
      <trkpt lat="60.8765641385" lon="15.1586723526">
        <ele>355</ele>
        <time>2011-06-24T14:14:29Z</time>
      </trkpt>
      <trkpt lat="60.8765296889" lon="15.1585758769">
        <ele>355.6</ele>
        <time>2011-06-24T14:14:34Z</time>
      </trkpt>
      <trkpt lat="60.8765130928" lon="15.1585467917">
        <ele>355.8</ele>
        <time>2011-06-24T14:14:36Z</time>
      </trkpt>
      <trkpt lat="60.8764600353" lon="15.1584637271">
        <ele>356.4</ele>
        <time>2011-06-24T14:14:41Z</time>
      </trkpt>
      <trkpt lat="60.8764168685" lon="15.1583304549">
        <ele>356.8</ele>
        <time>2011-06-24T14:14:47Z</time>
      </trkpt>
      <trkpt lat="60.8764050501" lon="15.1582993581">
        <ele>356.8</ele>
        <time>2011-06-24T14:14:48Z</time>
      </trkpt>
      <trkpt lat="60.8763224883" lon="15.1580956779">
        <ele>357.4</ele>
        <time>2011-06-24T14:14:54Z</time>
      </trkpt>
      <trkpt lat="60.8763069818" lon="15.1580281198">
        <ele>357.8</ele>
        <time>2011-06-24T14:14:56Z</time>
      </trkpt>
      <trkpt lat="60.8762676707" lon="15.1578269542">
        <ele>358.4</ele>
        <time>2011-06-24T14:15:02Z</time>
      </trkpt>
      <trkpt lat="60.8762578639" lon="15.1577970308">
        <ele>358.6</ele>
        <time>2011-06-24T14:15:03Z</time>
      </trkpt>
      <trkpt lat="60.8762113444" lon="15.1577267066">
        <ele>358.6</ele>
        <time>2011-06-24T14:15:06Z</time>
      </trkpt>
      <trkpt lat="60.8761509947" lon="15.1576540356">
        <ele>358.8</ele>
        <time>2011-06-24T14:15:10Z</time>
      </trkpt>
      <trkpt lat="60.8760712828" lon="15.1575879862">
        <ele>359</ele>
        <time>2011-06-24T14:15:14Z</time>
      </trkpt>
      <trkpt lat="60.8760647449" lon="15.1575591525">
        <ele>359</ele>
        <time>2011-06-24T14:15:15Z</time>
      </trkpt>
      <trkpt lat="60.8760538485" lon="15.1575279718">
        <ele>359.2</ele>
        <time>2011-06-24T14:15:17Z</time>
      </trkpt>
      <trkpt lat="60.8760520883" lon="15.157347258">
        <ele>360</ele>
        <time>2011-06-24T14:15:22Z</time>
      </trkpt>
      <trkpt lat="60.876053597" lon="15.1571961324">
        <ele>360.4</ele>
        <time>2011-06-24T14:15:26Z</time>
      </trkpt>
      <trkpt lat="60.8760610569" lon="15.157162521">
        <ele>360.6</ele>
        <time>2011-06-24T14:15:27Z</time>
      </trkpt>
      <trkpt lat="60.8760600511" lon="15.1571193542">
        <ele>360.6</ele>
        <time>2011-06-24T14:15:28Z</time>
      </trkpt>
      <trkpt lat="60.8760547705" lon="15.1570456773">
        <ele>360.8</ele>
        <time>2011-06-24T14:15:31Z</time>
      </trkpt>
      <trkpt lat="60.8760768987" lon="15.1569609363">
        <ele>361</ele>
        <time>2011-06-24T14:15:39Z</time>
      </trkpt>
      <trkpt lat="60.8760768149" lon="15.1569084656">
        <ele>361.2</ele>
        <time>2011-06-24T14:15:43Z</time>
      </trkpt>
      <trkpt lat="60.876073965" lon="15.1568658855">
        <ele>361.2</ele>
        <time>2011-06-24T14:15:45Z</time>
      </trkpt>
      <trkpt lat="60.8760816764" lon="15.156667905">
        <ele>361.2</ele>
        <time>2011-06-24T14:15:53Z</time>
      </trkpt>
      <trkpt lat="60.8760724563" lon="15.1566463636">
        <ele>361.2</ele>
        <time>2011-06-24T14:15:54Z</time>
      </trkpt>
      <trkpt lat="60.8760548543" lon="15.1565390752">
        <ele>361.2</ele>
        <time>2011-06-24T14:15:59Z</time>
      </trkpt>
      <trkpt lat="60.8760573689" lon="15.1565218085">
        <ele>361.2</ele>
        <time>2011-06-24T14:16:00Z</time>
      </trkpt>
      <trkpt lat="60.8760747194" lon="15.1564784741">
        <ele>361.2</ele>
        <time>2011-06-24T14:16:02Z</time>
      </trkpt>
      <trkpt lat="60.8760064069" lon="15.1559862051">
        <ele>361.4</ele>
        <time>2011-06-24T14:16:15Z</time>
      </trkpt>
      <trkpt lat="60.8759542715" lon="15.1558801741">
        <ele>361.4</ele>
        <time>2011-06-24T14:16:19Z</time>
      </trkpt>
      <trkpt lat="60.8759111885" lon="15.1557609835">
        <ele>361.4</ele>
        <time>2011-06-24T14:16:21Z</time>
      </trkpt>
      <trkpt lat="60.8758801755" lon="15.1556557906">
        <ele>361.4</ele>
        <time>2011-06-24T14:16:23Z</time>
      </trkpt>
      <trkpt lat="60.8758371763" lon="15.1554934332">
        <ele>361.4</ele>
        <time>2011-06-24T14:16:28Z</time>
      </trkpt>
      <trkpt lat="60.8758295488" lon="15.1554793516">
        <ele>361.4</ele>
        <time>2011-06-24T14:16:29Z</time>
      </trkpt>
      <trkpt lat="60.8757982005" lon="15.1553372784">
        <ele>362.2</ele>
        <time>2011-06-24T14:16:34Z</time>
      </trkpt>
      <trkpt lat="60.8757771619" lon="15.1552276432">
        <ele>362.6</ele>
        <time>2011-06-24T14:16:38Z</time>
      </trkpt>
      <trkpt lat="60.8757659302" lon="15.1550867434">
        <ele>362.8</ele>
        <time>2011-06-24T14:16:43Z</time>
      </trkpt>
      <trkpt lat="60.8757606496" lon="15.1550504498">
        <ele>363</ele>
        <time>2011-06-24T14:16:44Z</time>
      </trkpt>
      <trkpt lat="60.8757594761" lon="15.1550253041">
        <ele>363</ele>
        <time>2011-06-24T14:16:45Z</time>
      </trkpt>
      <trkpt lat="60.8757168123" lon="15.1548585043">
        <ele>363.8</ele>
        <time>2011-06-24T14:16:49Z</time>
      </trkpt>
      <trkpt lat="60.8756943488" lon="15.1547063728">
        <ele>364.4</ele>
        <time>2011-06-24T14:16:53Z</time>
      </trkpt>
      <trkpt lat="60.8756638386" lon="15.1545214681">
        <ele>364.6</ele>
        <time>2011-06-24T14:16:57Z</time>
      </trkpt>
      <trkpt lat="60.8756409561" lon="15.154337653">
        <ele>364.8</ele>
        <time>2011-06-24T14:17:01Z</time>
      </trkpt>
      <trkpt lat="60.8755764992" lon="15.1541041333">
        <ele>365.8</ele>
        <time>2011-06-24T14:17:06Z</time>
      </trkpt>
      <trkpt lat="60.8755577238" lon="15.1540381677">
        <ele>366</ele>
        <time>2011-06-24T14:17:08Z</time>
      </trkpt>
      <trkpt lat="60.8755166525" lon="15.1539474756">
        <ele>366.4</ele>
        <time>2011-06-24T14:17:11Z</time>
      </trkpt>
      <trkpt lat="60.8754877349" lon="15.1537477349">
        <ele>366.8</ele>
        <time>2011-06-24T14:17:16Z</time>
      </trkpt>
      <trkpt lat="60.8754808618" lon="15.1536713758">
        <ele>367.4</ele>
        <time>2011-06-24T14:17:18Z</time>
      </trkpt>
      <trkpt lat="60.875455297" lon="15.1534292227">
        <ele>368.2</ele>
        <time>2011-06-24T14:17:23Z</time>
      </trkpt>
      <trkpt lat="60.8754264632" lon="15.1532502691">
        <ele>368.6</ele>
        <time>2011-06-24T14:17:27Z</time>
      </trkpt>
      <trkpt lat="60.8754021557" lon="15.1531406339">
        <ele>369</ele>
        <time>2011-06-24T14:17:31Z</time>
      </trkpt>
      <trkpt lat="60.8753824583" lon="15.1530025002">
        <ele>369</ele>
        <time>2011-06-24T14:17:35Z</time>
      </trkpt>
      <trkpt lat="60.875340884" lon="15.1528422382">
        <ele>369.2</ele>
        <time>2011-06-24T14:17:39Z</time>
      </trkpt>
      <trkpt lat="60.8753257966" lon="15.1527809666">
        <ele>369.6</ele>
        <time>2011-06-24T14:17:41Z</time>
      </trkpt>
      <trkpt lat="60.8753054286" lon="15.1526572497">
        <ele>370.2</ele>
        <time>2011-06-24T14:17:45Z</time>
      </trkpt>
      <trkpt lat="60.8753139781" lon="15.1525744365">
        <ele>370.6</ele>
        <time>2011-06-24T14:17:48Z</time>
      </trkpt>
      <trkpt lat="60.8753138943" lon="15.1524275018">
        <ele>371</ele>
        <time>2011-06-24T14:17:54Z</time>
      </trkpt>
      <trkpt lat="60.8753129723" lon="15.1524025238">
        <ele>371</ele>
        <time>2011-06-24T14:17:55Z</time>
      </trkpt>
      <trkpt lat="60.8753124694" lon="15.1522400825">
        <ele>371.4</ele>
        <time>2011-06-24T14:18:03Z</time>
      </trkpt>
      <trkpt lat="60.8753216057" lon="15.1521434392">
        <ele>371.4</ele>
        <time>2011-06-24T14:18:24Z</time>
      </trkpt>
      <trkpt lat="60.8753029979" lon="15.1520282719">
        <ele>371.4</ele>
        <time>2011-06-24T14:18:31Z</time>
      </trkpt>
      <trkpt lat="60.8752972982" lon="15.152011592">
        <ele>371.4</ele>
        <time>2011-06-24T14:18:32Z</time>
      </trkpt>
      <trkpt lat="60.8752485993" lon="15.1518882104">
        <ele>371.4</ele>
        <time>2011-06-24T14:18:38Z</time>
      </trkpt>
      <trkpt lat="60.8752452466" lon="15.151837919">
        <ele>371.4</ele>
        <time>2011-06-24T14:18:40Z</time>
      </trkpt>
      <trkpt lat="60.8752620104" lon="15.1516930798">
        <ele>371.4</ele>
        <time>2011-06-24T14:18:46Z</time>
      </trkpt>
      <trkpt lat="60.8752710628" lon="15.151580427">
        <ele>371.4</ele>
        <time>2011-06-24T14:18:50Z</time>
      </trkpt>
      <trkpt lat="60.8752485155" lon="15.1515131204">
        <ele>371.4</ele>
        <time>2011-06-24T14:18:55Z</time>
      </trkpt>
      <trkpt lat="60.8752443246" lon="15.1515143776">
        <ele>371.4</ele>
        <time>2011-06-24T14:18:59Z</time>
      </trkpt>
      <trkpt lat="60.8752040076" lon="15.1515313929">
        <ele>371.4</ele>
        <time>2011-06-24T14:19:14Z</time>
      </trkpt>
      <trkpt lat="60.8751921891" lon="15.1515314767">
        <ele>371.4</ele>
        <time>2011-06-24T14:19:15Z</time>
      </trkpt>
      <trkpt lat="60.8750925283" lon="15.1514848734">
        <ele>371.4</ele>
        <time>2011-06-24T14:19:20Z</time>
      </trkpt>
      <trkpt lat="60.8749813005" lon="15.1514238531">
        <ele>371.4</ele>
        <time>2011-06-24T14:19:25Z</time>
      </trkpt>
      <trkpt lat="60.8748975653" lon="15.1514381862">
        <ele>371.4</ele>
        <time>2011-06-24T14:19:30Z</time>
      </trkpt>
      <trkpt lat="60.87485465" lon="15.1514675228">
        <ele>371.4</ele>
        <time>2011-06-24T14:19:34Z</time>
      </trkpt>
      <trkpt lat="60.87477871" lon="15.1514346658">
        <ele>371.4</ele>
        <time>2011-06-24T14:19:38Z</time>
      </trkpt>
      <trkpt lat="60.8746866767" lon="15.151433157">
        <ele>371.4</ele>
        <time>2011-06-24T14:19:42Z</time>
      </trkpt>
      <trkpt lat="60.8746648" lon="15.1514390244">
        <ele>371.4</ele>
        <time>2011-06-24T14:19:43Z</time>
      </trkpt>
      <trkpt lat="60.8745505547" lon="15.151407257">
        <ele>371.4</ele>
        <time>2011-06-24T14:19:48Z</time>
      </trkpt>
      <trkpt lat="60.8743866047" lon="15.1514250266">
        <ele>371.4</ele>
        <time>2011-06-24T14:19:55Z</time>
      </trkpt>
      <trkpt lat="60.8742680847" lon="15.1514764076">
        <ele>371.4</ele>
        <time>2011-06-24T14:20:00Z</time>
      </trkpt>
      <trkpt lat="60.8741652387" lon="15.1515053252">
        <ele>371.4</ele>
        <time>2011-06-24T14:20:05Z</time>
      </trkpt>
      <trkpt lat="60.8741214852" lon="15.1515408644">
        <ele>371.4</ele>
        <time>2011-06-24T14:20:09Z</time>
      </trkpt>
      <trkpt lat="60.874117881" lon="15.1515676865">
        <ele>371.4</ele>
        <time>2011-06-24T14:20:16Z</time>
      </trkpt>
      <trkpt lat="60.8741226587" lon="15.1516992824">
        <ele>371.4</ele>
        <time>2011-06-24T14:20:20Z</time>
      </trkpt>
      <trkpt lat="60.8740919809" lon="15.1518942454">
        <ele>371.4</ele>
        <time>2011-06-24T14:20:25Z</time>
      </trkpt>
      <trkpt lat="60.8740365766" lon="15.1521463729">
        <ele>371.4</ele>
        <time>2011-06-24T14:20:31Z</time>
      </trkpt>
      <trkpt lat="60.8740137778" lon="15.1523172798">
        <ele>371.4</ele>
        <time>2011-06-24T14:20:35Z</time>
      </trkpt>
      <trkpt lat="60.8739629835" lon="15.1524992509">
        <ele>371.4</ele>
        <time>2011-06-24T14:20:40Z</time>
      </trkpt>
      <trkpt lat="60.8739320543" lon="15.1527332735">
        <ele>370.8</ele>
        <time>2011-06-24T14:20:46Z</time>
      </trkpt>
      <trkpt lat="60.8738749735" lon="15.1528920267">
        <ele>370.4</ele>
        <time>2011-06-24T14:20:50Z</time>
      </trkpt>
      <trkpt lat="60.8738026378" lon="15.1530661188">
        <ele>370</ele>
        <time>2011-06-24T14:20:55Z</time>
      </trkpt>
      <trkpt lat="60.8737986983" lon="15.1530982215">
        <ele>370</ele>
        <time>2011-06-24T14:20:56Z</time>
      </trkpt>
      <trkpt lat="60.8737476525" lon="15.1532593216">
        <ele>369.8</ele>
        <time>2011-06-24T14:21:00Z</time>
      </trkpt>
      <trkpt lat="60.8737383486" lon="15.1532919272">
        <ele>369.8</ele>
        <time>2011-06-24T14:21:01Z</time>
      </trkpt>
      <trkpt lat="60.8737264463" lon="15.1533285561">
        <ele>369.8</ele>
        <time>2011-06-24T14:21:02Z</time>
      </trkpt>
      <trkpt lat="60.8736964391" lon="15.1534727248">
        <ele>369.6</ele>
        <time>2011-06-24T14:21:06Z</time>
      </trkpt>
      <trkpt lat="60.8736611513" lon="15.1536751476">
        <ele>369.6</ele>
        <time>2011-06-24T14:21:11Z</time>
      </trkpt>
      <trkpt lat="60.8736158052" lon="15.1538934123">
        <ele>369.6</ele>
        <time>2011-06-24T14:21:16Z</time>
      </trkpt>
      <trkpt lat="60.8735515998" lon="15.1541558496">
        <ele>369.6</ele>
        <time>2011-06-24T14:21:22Z</time>
      </trkpt>
      <trkpt lat="60.8735357581" lon="15.1544094859">
        <ele>369.4</ele>
        <time>2011-06-24T14:21:27Z</time>
      </trkpt>
      <trkpt lat="60.8735127078" lon="15.1547277466">
        <ele>369.4</ele>
        <time>2011-06-24T14:21:34Z</time>
      </trkpt>
      <trkpt lat="60.8734441439" lon="15.1549042695">
        <ele>369.4</ele>
        <time>2011-06-24T14:21:39Z</time>
      </trkpt>
      <trkpt lat="60.8733572236" lon="15.1550718236">
        <ele>369.4</ele>
        <time>2011-06-24T14:21:44Z</time>
      </trkpt>
      <trkpt lat="60.8732548806" lon="15.1552770126">
        <ele>369.4</ele>
        <time>2011-06-24T14:21:50Z</time>
      </trkpt>
      <trkpt lat="60.8731515318" lon="15.1554376098">
        <ele>369.4</ele>
        <time>2011-06-24T14:21:55Z</time>
      </trkpt>
      <trkpt lat="60.8730552237" lon="15.1555468259">
        <ele>369.4</ele>
        <time>2011-06-24T14:22:00Z</time>
      </trkpt>
      <trkpt lat="60.8729123123" lon="15.1556897373">
        <ele>369.4</ele>
        <time>2011-06-24T14:22:07Z</time>
      </trkpt>
      <trkpt lat="60.8727650424" lon="15.155770455">
        <ele>369</ele>
        <time>2011-06-24T14:22:13Z</time>
      </trkpt>
      <trkpt lat="60.8724845002" lon="15.1559736323">
        <ele>367.6</ele>
        <time>2011-06-24T14:22:25Z</time>
      </trkpt>
      <trkpt lat="60.8723496354" lon="15.1560840219">
        <ele>366.6</ele>
        <time>2011-06-24T14:22:31Z</time>
      </trkpt>
      <trkpt lat="60.8722116693" lon="15.1562095827">
        <ele>366</ele>
        <time>2011-06-24T14:22:38Z</time>
      </trkpt>
      <trkpt lat="60.8721772197" lon="15.1562416854">
        <ele>365.8</ele>
        <time>2011-06-24T14:22:40Z</time>
      </trkpt>
      <trkpt lat="60.8721011121" lon="15.1562989338">
        <ele>365.6</ele>
        <time>2011-06-24T14:22:44Z</time>
      </trkpt>
      <trkpt lat="60.8719691809" lon="15.1563829204">
        <ele>364.4</ele>
        <time>2011-06-24T14:22:51Z</time>
      </trkpt>
      <trkpt lat="60.8718199831" lon="15.1564890353">
        <ele>363.8</ele>
        <time>2011-06-24T14:22:58Z</time>
      </trkpt>
      <trkpt lat="60.8717146226" lon="15.1565569287">
        <ele>362.8</ele>
        <time>2011-06-24T14:23:03Z</time>
      </trkpt>
      <trkpt lat="60.8715854576" lon="15.1566607804">
        <ele>362.2</ele>
        <time>2011-06-24T14:23:09Z</time>
      </trkpt>
      <trkpt lat="60.8715225095" lon="15.156681819">
        <ele>362</ele>
        <time>2011-06-24T14:23:12Z</time>
      </trkpt>
      <trkpt lat="60.8715105234" lon="15.1566876863">
        <ele>361</ele>
        <time>2011-06-24T14:23:22Z</time>
      </trkpt>
      <trkpt lat="60.8714626627" lon="15.1566213017">
        <ele>360</ele>
        <time>2011-06-24T14:23:29Z</time>
      </trkpt>
      <trkpt lat="60.8714105273" lon="15.1564572679">
        <ele>359.4</ele>
        <time>2011-06-24T14:23:33Z</time>
      </trkpt>
      <trkpt lat="60.8714350863" lon="15.1562763027">
        <ele>358.6</ele>
        <time>2011-06-24T14:23:37Z</time>
      </trkpt>
      <trkpt lat="60.8715242697" lon="15.1560957565">
        <ele>357.6</ele>
        <time>2011-06-24T14:23:43Z</time>
      </trkpt>
      <trkpt lat="60.8716209968" lon="15.1560354069">
        <ele>356.6</ele>
        <time>2011-06-24T14:23:48Z</time>
      </trkpt>
      <trkpt lat="60.8717484017" lon="15.1559706148">
        <ele>355.8</ele>
        <time>2011-06-24T14:23:54Z</time>
      </trkpt>
      <trkpt lat="60.8718104278" lon="15.1559790805">
        <ele>355.6</ele>
        <time>2011-06-24T14:23:57Z</time>
      </trkpt>
      <trkpt lat="60.8718950011" lon="15.1560309645">
        <ele>354.6</ele>
        <time>2011-06-24T14:24:02Z</time>
      </trkpt>
      <trkpt lat="60.8720059775" lon="15.1560204033">
        <ele>354</ele>
        <time>2011-06-24T14:24:07Z</time>
      </trkpt>
      <trkpt lat="60.8720322967" lon="15.1560177211">
        <ele>353.8</ele>
        <time>2011-06-24T14:24:08Z</time>
      </trkpt>
      <trkpt lat="60.8721504814" lon="15.1559167192">
        <ele>353.6</ele>
        <time>2011-06-24T14:24:13Z</time>
      </trkpt>
      <trkpt lat="60.8722615416" lon="15.1558156334">
        <ele>353.4</ele>
        <time>2011-06-24T14:24:18Z</time>
      </trkpt>
      <trkpt lat="60.8723386551" lon="15.1557254442">
        <ele>353.2</ele>
        <time>2011-06-24T14:24:22Z</time>
      </trkpt>
      <trkpt lat="60.8724099851" lon="15.1555545373">
        <ele>353.2</ele>
        <time>2011-06-24T14:24:27Z</time>
      </trkpt>
      <trkpt lat="60.8724162715" lon="15.1555148909">
        <ele>353.2</ele>
        <time>2011-06-24T14:24:28Z</time>
      </trkpt>
      <trkpt lat="60.8724546606" lon="15.1553538746">
        <ele>353.2</ele>
        <time>2011-06-24T14:24:32Z</time>
      </trkpt>
      <trkpt lat="60.8724586001" lon="15.1552635177">
        <ele>353</ele>
        <time>2011-06-24T14:24:34Z</time>
      </trkpt>
      <trkpt lat="60.872461869" lon="15.1550900962">
        <ele>353</ele>
        <time>2011-06-24T14:24:38Z</time>
      </trkpt>
      <trkpt lat="60.8724192052" lon="15.1548343644">
        <ele>353</ele>
        <time>2011-06-24T14:24:45Z</time>
      </trkpt>
      <trkpt lat="60.8724067161" lon="15.1548061174">
        <ele>353</ele>
        <time>2011-06-24T14:24:46Z</time>
      </trkpt>
      <trkpt lat="60.8723745296" lon="15.1546451011">
        <ele>353</ele>
        <time>2011-06-24T14:24:50Z</time>
      </trkpt>
      <trkpt lat="60.8723496354" lon="15.1543303608">
        <ele>353</ele>
        <time>2011-06-24T14:24:57Z</time>
      </trkpt>
      <trkpt lat="60.8723518147" lon="15.1540535904">
        <ele>353</ele>
        <time>2011-06-24T14:25:03Z</time>
      </trkpt>
      <trkpt lat="60.8723317819" lon="15.1538691886">
        <ele>353</ele>
        <time>2011-06-24T14:25:07Z</time>
      </trkpt>
      <trkpt lat="60.8723068877" lon="15.1535993753">
        <ele>353</ele>
        <time>2011-06-24T14:25:14Z</time>
      </trkpt>
      <trkpt lat="60.872252573" lon="15.1533968686">
        <ele>353</ele>
        <time>2011-06-24T14:25:19Z</time>
      </trkpt>
      <trkpt lat="60.8722453646" lon="15.1533621675">
        <ele>353</ele>
        <time>2011-06-24T14:25:20Z</time>
      </trkpt>
      <trkpt lat="60.8722101606" lon="15.1531651928">
        <ele>353</ele>
        <time>2011-06-24T14:25:25Z</time>
      </trkpt>
      <trkpt lat="60.8722050476" lon="15.1529832218">
        <ele>353</ele>
        <time>2011-06-24T14:25:29Z</time>
      </trkpt>
      <trkpt lat="60.872191888" lon="15.1527981494">
        <ele>353</ele>
        <time>2011-06-24T14:25:34Z</time>
      </trkpt>
      <trkpt lat="60.8721779741" lon="15.1526192797">
        <ele>353</ele>
        <time>2011-06-24T14:25:39Z</time>
      </trkpt>
      <trkpt lat="60.8721670776" lon="15.1524596883">
        <ele>353</ele>
        <time>2011-06-24T14:25:43Z</time>
      </trkpt>
      <trkpt lat="60.8721286885" lon="15.1523168608">
        <ele>353</ele>
        <time>2011-06-24T14:25:47Z</time>
      </trkpt>
      <trkpt lat="60.8720637288" lon="15.152139835">
        <ele>353</ele>
        <time>2011-06-24T14:25:53Z</time>
      </trkpt>
      <trkpt lat="60.8720235795" lon="15.1520172916">
        <ele>353</ele>
        <time>2011-06-24T14:25:57Z</time>
      </trkpt>
      <trkpt lat="60.8719768085" lon="15.1518342309">
        <ele>353</ele>
        <time>2011-06-24T14:26:02Z</time>
      </trkpt>
      <trkpt lat="60.871914028" lon="15.151536925">
        <ele>353</ele>
        <time>2011-06-24T14:26:09Z</time>
      </trkpt>
      <trkpt lat="60.8719151177" lon="15.1512975379">
        <ele>353</ele>
        <time>2011-06-24T14:26:14Z</time>
      </trkpt>
      <trkpt lat="60.8719137766" lon="15.151262753">
        <ele>353</ele>
        <time>2011-06-24T14:26:15Z</time>
      </trkpt>
      <trkpt lat="60.8718971804" lon="15.1511269662">
        <ele>352.4</ele>
        <time>2011-06-24T14:26:18Z</time>
      </trkpt>
      <trkpt lat="60.8718691849" lon="15.1509285667">
        <ele>351.8</ele>
        <time>2011-06-24T14:26:23Z</time>
      </trkpt>
      <trkpt lat="60.8718623117" lon="15.1508838073">
        <ele>351.8</ele>
        <time>2011-06-24T14:26:24Z</time>
      </trkpt>
      <trkpt lat="60.8718354058" lon="15.150593123">
        <ele>351.2</ele>
        <time>2011-06-24T14:26:31Z</time>
      </trkpt>
      <trkpt lat="60.8717884672" lon="15.1504026024">
        <ele>350.2</ele>
        <time>2011-06-24T14:26:36Z</time>
      </trkpt>
      <trkpt lat="60.8717516706" lon="15.1502392392">
        <ele>349.8</ele>
        <time>2011-06-24T14:26:40Z</time>
      </trkpt>
      <trkpt lat="60.8717048996" lon="15.1500486348">
        <ele>349.4</ele>
        <time>2011-06-24T14:26:45Z</time>
      </trkpt>
      <trkpt lat="60.8716471483" lon="15.1498622213">
        <ele>349.2</ele>
        <time>2011-06-24T14:26:50Z</time>
      </trkpt>
      <trkpt lat="60.871616303" lon="15.1498047215">
        <ele>349.2</ele>
        <time>2011-06-24T14:26:52Z</time>
      </trkpt>
      <trkpt lat="60.8715549474" lon="15.1496434537">
        <ele>349</ele>
        <time>2011-06-24T14:26:57Z</time>
      </trkpt>
      <trkpt lat="60.8715321487" lon="15.1494551963">
        <ele>349</ele>
        <time>2011-06-24T14:27:01Z</time>
      </trkpt>
      <trkpt lat="60.871509769" lon="15.1493046573">
        <ele>349</ele>
        <time>2011-06-24T14:27:05Z</time>
      </trkpt>
      <trkpt lat="60.8715304723" lon="15.1491064254">
        <ele>348.4</ele>
        <time>2011-06-24T14:27:10Z</time>
      </trkpt>
      <trkpt lat="60.8715392733" lon="15.1490308207">
        <ele>348</ele>
        <time>2011-06-24T14:27:12Z</time>
      </trkpt>
      <trkpt lat="60.8715447215" lon="15.1489551321">
        <ele>347.8</ele>
        <time>2011-06-24T14:27:15Z</time>
      </trkpt>
      <trkpt lat="60.8715548636" lon="15.1488481791">
        <ele>347.4</ele>
        <time>2011-06-24T14:27:22Z</time>
      </trkpt>
      <trkpt lat="60.8715562886" lon="15.1488196806">
        <ele>347.2</ele>
        <time>2011-06-24T14:27:23Z</time>
      </trkpt>
      <trkpt lat="60.8715614015" lon="15.1487001547">
        <ele>347.2</ele>
        <time>2011-06-24T14:27:28Z</time>
      </trkpt>
      <trkpt lat="60.871579255" lon="15.1485526333">
        <ele>346.2</ele>
        <time>2011-06-24T14:27:33Z</time>
      </trkpt>
      <trkpt lat="60.871588475" lon="15.1484538107">
        <ele>345.8</ele>
        <time>2011-06-24T14:27:36Z</time>
      </trkpt>
      <trkpt lat="60.8716205777" lon="15.1482447661">
        <ele>345.4</ele>
        <time>2011-06-24T14:27:43Z</time>
      </trkpt>
      <trkpt lat="60.871625523" lon="15.1482246495">
        <ele>345.2</ele>
        <time>2011-06-24T14:27:44Z</time>
      </trkpt>
      <trkpt lat="60.8716334859" lon="15.1481606118">
        <ele>344.8</ele>
        <time>2011-06-24T14:27:48Z</time>
      </trkpt>
      <trkpt lat="60.8716196557" lon="15.1479935605">
        <ele>343.8</ele>
        <time>2011-06-24T14:27:54Z</time>
      </trkpt>
      <trkpt lat="60.8716101003" lon="15.1479454484">
        <ele>343.6</ele>
        <time>2011-06-24T14:27:56Z</time>
      </trkpt>
      <trkpt lat="60.8716007964" lon="15.1478174568">
        <ele>343.4</ele>
        <time>2011-06-24T14:28:00Z</time>
      </trkpt>
      <trkpt lat="60.8715605633" lon="15.14760573">
        <ele>343</ele>
        <time>2011-06-24T14:28:08Z</time>
      </trkpt>
      <trkpt lat="60.8715465655" lon="15.1474996152">
        <ele>342.8</ele>
        <time>2011-06-24T14:28:12Z</time>
      </trkpt>
      <trkpt lat="60.8715258623" lon="15.1474218311">
        <ele>342.8</ele>
        <time>2011-06-24T14:28:15Z</time>
      </trkpt>
      <trkpt lat="60.8715168936" lon="15.1473389342">
        <ele>342.8</ele>
        <time>2011-06-24T14:28:18Z</time>
      </trkpt>
      <trkpt lat="60.8715170613" lon="15.1472305562">
        <ele>342.8</ele>
        <time>2011-06-24T14:28:22Z</time>
      </trkpt>
      <trkpt lat="60.8715087632" lon="15.1470837053">
        <ele>343.2</ele>
        <time>2011-06-24T14:28:28Z</time>
      </trkpt>
      <trkpt lat="60.8715178994" lon="15.1469306518">
        <ele>343.8</ele>
        <time>2011-06-24T14:28:32Z</time>
      </trkpt>
      <trkpt lat="60.87151857" lon="15.1468998902">
        <ele>343.8</ele>
        <time>2011-06-24T14:28:33Z</time>
      </trkpt>
      <trkpt lat="60.8715317296" lon="15.1467642711">
        <ele>344.2</ele>
        <time>2011-06-24T14:28:37Z</time>
      </trkpt>
      <trkpt lat="60.8715425422" lon="15.1466986408">
        <ele>344.2</ele>
        <time>2011-06-24T14:28:39Z</time>
      </trkpt>
      <trkpt lat="60.8715498345" lon="15.1466362795">
        <ele>344.4</ele>
        <time>2011-06-24T14:28:41Z</time>
      </trkpt>
      <trkpt lat="60.8715467332" lon="15.1465680508">
        <ele>344.4</ele>
        <time>2011-06-24T14:28:43Z</time>
      </trkpt>
      <trkpt lat="60.8715619044" lon="15.1464696473">
        <ele>344.6</ele>
        <time>2011-06-24T14:28:46Z</time>
      </trkpt>
      <trkpt lat="60.8715240182" lon="15.1462689846">
        <ele>344.6</ele>
        <time>2011-06-24T14:28:53Z</time>
      </trkpt>
      <trkpt lat="60.8714987049" lon="15.1461314376">
        <ele>344.6</ele>
        <time>2011-06-24T14:28:58Z</time>
      </trkpt>
      <trkpt lat="60.8714659317" lon="15.1458477103">
        <ele>344.8</ele>
        <time>2011-06-24T14:29:09Z</time>
      </trkpt>
      <trkpt lat="60.8714828631" lon="15.1456824193">
        <ele>344.8</ele>
        <time>2011-06-24T14:29:15Z</time>
      </trkpt>
      <trkpt lat="60.8714996269" lon="15.1454808346">
        <ele>344.8</ele>
        <time>2011-06-24T14:29:21Z</time>
      </trkpt>
      <trkpt lat="60.8715275386" lon="15.1453723728">
        <ele>344.8</ele>
        <time>2011-06-24T14:29:25Z</time>
      </trkpt>
      <trkpt lat="60.8715577135" lon="15.1452117756">
        <ele>344</ele>
        <time>2011-06-24T14:29:29Z</time>
      </trkpt>
      <trkpt lat="60.8716132855" lon="15.1449127094">
        <ele>343.4</ele>
        <time>2011-06-24T14:29:35Z</time>
      </trkpt>
      <trkpt lat="60.871634827" lon="15.1446630964">
        <ele>343.2</ele>
        <time>2011-06-24T14:29:40Z</time>
      </trkpt>
      <trkpt lat="60.8716724617" lon="15.1443902656">
        <ele>343</ele>
        <time>2011-06-24T14:29:46Z</time>
      </trkpt>
      <trkpt lat="60.8717007925" lon="15.1441633675">
        <ele>342.8</ele>
        <time>2011-06-24T14:29:51Z</time>
      </trkpt>
      <trkpt lat="60.8717248486" lon="15.1438710069">
        <ele>342.8</ele>
        <time>2011-06-24T14:29:57Z</time>
      </trkpt>
      <trkpt lat="60.871718646" lon="15.1436225673">
        <ele>342.8</ele>
        <time>2011-06-24T14:30:02Z</time>
      </trkpt>
      <trkpt lat="60.8717121919" lon="15.143403213">
        <ele>342.8</ele>
        <time>2011-06-24T14:30:07Z</time>
      </trkpt>
      <trkpt lat="60.8717085039" lon="15.1431025543">
        <ele>342.8</ele>
        <time>2011-06-24T14:30:14Z</time>
      </trkpt>
      <trkpt lat="60.8716999543" lon="15.1428849601">
        <ele>342.8</ele>
        <time>2011-06-24T14:30:19Z</time>
      </trkpt>
      <trkpt lat="60.8716776585" lon="15.1426278873">
        <ele>343</ele>
        <time>2011-06-24T14:30:25Z</time>
      </trkpt>
      <trkpt lat="60.8716531833" lon="15.1423482671">
        <ele>343.8</ele>
        <time>2011-06-24T14:30:31Z</time>
      </trkpt>
      <trkpt lat="60.8716113576" lon="15.1420723349">
        <ele>344.2</ele>
        <time>2011-06-24T14:30:37Z</time>
      </trkpt>
      <trkpt lat="60.8715718789" lon="15.1418126637">
        <ele>344.4</ele>
        <time>2011-06-24T14:30:43Z</time>
      </trkpt>
      <trkpt lat="60.8715561209" lon="15.1415876097">
        <ele>344.6</ele>
        <time>2011-06-24T14:30:48Z</time>
      </trkpt>
      <trkpt lat="60.8715624912" lon="15.1415060538">
        <ele>344.6</ele>
        <time>2011-06-24T14:30:50Z</time>
      </trkpt>
      <trkpt lat="60.8715504212" lon="15.1412355699">
        <ele>344.6</ele>
        <time>2011-06-24T14:30:56Z</time>
      </trkpt>
      <trkpt lat="60.8715555342" lon="15.1411846917">
        <ele>344.6</ele>
        <time>2011-06-24T14:30:57Z</time>
      </trkpt>
      <trkpt lat="60.8715467332" lon="15.140976653">
        <ele>344.6</ele>
        <time>2011-06-24T14:31:02Z</time>
      </trkpt>
      <trkpt lat="60.8715149658" lon="15.1407278782">
        <ele>345</ele>
        <time>2011-06-24T14:31:08Z</time>
      </trkpt>
      <trkpt lat="60.871507925" lon="15.1406860525">
        <ele>345.2</ele>
        <time>2011-06-24T14:31:09Z</time>
      </trkpt>
      <trkpt lat="60.8714992078" lon="15.1406495912">
        <ele>345.4</ele>
        <time>2011-06-24T14:31:10Z</time>
      </trkpt>
      <trkpt lat="60.8714262853" lon="15.1404733199">
        <ele>346</ele>
        <time>2011-06-24T14:31:16Z</time>
      </trkpt>
      <trkpt lat="60.8714075098" lon="15.1404262136">
        <ele>346.2</ele>
        <time>2011-06-24T14:31:18Z</time>
      </trkpt>
      <trkpt lat="60.8713612417" lon="15.1402771834">
        <ele>346.6</ele>
        <time>2011-06-24T14:31:23Z</time>
      </trkpt>
      <trkpt lat="60.8713303125" lon="15.1400602598">
        <ele>347.8</ele>
        <time>2011-06-24T14:31:29Z</time>
      </trkpt>
      <trkpt lat="60.8713210924" lon="15.1398299252">
        <ele>348.2</ele>
        <time>2011-06-24T14:31:34Z</time>
      </trkpt>
      <trkpt lat="60.8713168177" lon="15.1397762811">
        <ele>348.2</ele>
        <time>2011-06-24T14:31:35Z</time>
      </trkpt>
      <trkpt lat="60.8713379401" lon="15.1394369818">
        <ele>348.6</ele>
        <time>2011-06-24T14:31:42Z</time>
      </trkpt>
      <trkpt lat="60.8713573861" lon="15.1391790707">
        <ele>349.4</ele>
        <time>2011-06-24T14:31:48Z</time>
      </trkpt>
      <trkpt lat="60.8713385268" lon="15.1390126062">
        <ele>350.2</ele>
        <time>2011-06-24T14:31:54Z</time>
      </trkpt>
      <trkpt lat="60.87133333" lon="15.1389849459">
        <ele>350.2</ele>
        <time>2011-06-24T14:31:55Z</time>
      </trkpt>
      <trkpt lat="60.8712954438" lon="15.1387935033">
        <ele>350.4</ele>
        <time>2011-06-24T14:32:00Z</time>
      </trkpt>
      <trkpt lat="60.8712756625" lon="15.1386857959">
        <ele>350.6</ele>
        <time>2011-06-24T14:32:02Z</time>
      </trkpt>
      <trkpt lat="60.8711988005" lon="15.1383344266">
        <ele>350.8</ele>
        <time>2011-06-24T14:32:09Z</time>
      </trkpt>
      <trkpt lat="60.8711861438" lon="15.1380504479">
        <ele>350.8</ele>
        <time>2011-06-24T14:32:14Z</time>
      </trkpt>
      <trkpt lat="60.8711463298" lon="15.1376471946">
        <ele>350.8</ele>
        <time>2011-06-24T14:32:21Z</time>
      </trkpt>
      <trkpt lat="60.8711052585" lon="15.137308063">
        <ele>350.8</ele>
        <time>2011-06-24T14:32:27Z</time>
      </trkpt>
      <trkpt lat="60.8710309111" lon="15.1371011139">
        <ele>350.8</ele>
        <time>2011-06-24T14:32:32Z</time>
      </trkpt>
      <trkpt lat="60.8709234551" lon="15.1369254292">
        <ele>350.8</ele>
        <time>2011-06-24T14:32:38Z</time>
      </trkpt>
      <trkpt lat="60.8708036778" lon="15.1367323941">
        <ele>350.8</ele>
        <time>2011-06-24T14:32:44Z</time>
      </trkpt>
      <trkpt lat="60.8707185176" lon="15.1365205835">
        <ele>351</ele>
        <time>2011-06-24T14:32:50Z</time>
      </trkpt>
      <trkpt lat="60.8706802124" lon="15.136281364">
        <ele>351</ele>
        <time>2011-06-24T14:32:55Z</time>
      </trkpt>
      <trkpt lat="60.8706362912" lon="15.1359506143">
        <ele>351</ele>
        <time>2011-06-24T14:33:01Z</time>
      </trkpt>
      <trkpt lat="60.8706331061" lon="15.135915997">
        <ele>351</ele>
        <time>2011-06-24T14:33:02Z</time>
      </trkpt>
      <trkpt lat="60.8705948846" lon="15.1357109757">
        <ele>351</ele>
        <time>2011-06-24T14:33:07Z</time>
      </trkpt>
      <trkpt lat="60.8705352055" lon="15.1354388155">
        <ele>351.4</ele>
        <time>2011-06-24T14:33:12Z</time>
      </trkpt>
      <trkpt lat="60.8704880992" lon="15.1351743665">
        <ele>352</ele>
        <time>2011-06-24T14:33:17Z</time>
      </trkpt>
      <trkpt lat="60.8704147576" lon="15.1348850233">
        <ele>352.4</ele>
        <time>2011-06-24T14:33:23Z</time>
      </trkpt>
      <trkpt lat="60.870377542" lon="15.1347233365">
        <ele>352.6</ele>
        <time>2011-06-24T14:33:26Z</time>
      </trkpt>
      <trkpt lat="60.8703463613" lon="15.1345613982">
        <ele>352.8</ele>
        <time>2011-06-24T14:33:30Z</time>
      </trkpt>
      <trkpt lat="60.8702903702" lon="15.1343529403">
        <ele>352.8</ele>
        <time>2011-06-24T14:33:34Z</time>
      </trkpt>
      <trkpt lat="60.8702178668" lon="15.1341392019">
        <ele>352.8</ele>
        <time>2011-06-24T14:33:38Z</time>
      </trkpt>
      <trkpt lat="60.8701399151" lon="15.1338868228">
        <ele>353</ele>
        <time>2011-06-24T14:33:43Z</time>
      </trkpt>
      <trkpt lat="60.8700699262" lon="15.133692698">
        <ele>353</ele>
        <time>2011-06-24T14:33:47Z</time>
      </trkpt>
      <trkpt lat="60.8700080678" lon="15.1335948813">
        <ele>352.6</ele>
        <time>2011-06-24T14:33:50Z</time>
      </trkpt>
      <trkpt lat="60.8699513223" lon="15.1334783729">
        <ele>352.2</ele>
        <time>2011-06-24T14:33:53Z</time>
      </trkpt>
      <trkpt lat="60.869847303" lon="15.1331653927">
        <ele>351.4</ele>
        <time>2011-06-24T14:34:00Z</time>
      </trkpt>
      <trkpt lat="60.8698356521" lon="15.1331261654">
        <ele>351</ele>
        <time>2011-06-24T14:34:01Z</time>
      </trkpt>
      <trkpt lat="60.8697182217" lon="15.1329022849">
        <ele>350</ele>
        <time>2011-06-24T14:34:07Z</time>
      </trkpt>
      <trkpt lat="60.8697017094" lon="15.1328848505">
        <ele>350</ele>
        <time>2011-06-24T14:34:08Z</time>
      </trkpt>
      <trkpt lat="60.8696176389" lon="15.1326664182">
        <ele>349.4</ele>
        <time>2011-06-24T14:34:13Z</time>
      </trkpt>
      <trkpt lat="60.8695865421" lon="15.1323007997">
        <ele>349.2</ele>
        <time>2011-06-24T14:34:18Z</time>
      </trkpt>
      <trkpt lat="60.8695780763" lon="15.1320832894">
        <ele>349.2</ele>
        <time>2011-06-24T14:34:21Z</time>
      </trkpt>
      <trkpt lat="60.8695766514" lon="15.1318268871">
        <ele>349</ele>
        <time>2011-06-24T14:34:25Z</time>
      </trkpt>
      <trkpt lat="60.8695737177" lon="15.1314670521">
        <ele>349</ele>
        <time>2011-06-24T14:34:29Z</time>
      </trkpt>
      <trkpt lat="60.8695750588" lon="15.1311472827">
        <ele>349</ele>
        <time>2011-06-24T14:34:34Z</time>
      </trkpt>
      <trkpt lat="60.8695631566" lon="15.1308594482">
        <ele>348.8</ele>
        <time>2011-06-24T14:34:38Z</time>
      </trkpt>
      <trkpt lat="60.8695639109" lon="15.1305774811">
        <ele>348.8</ele>
        <time>2011-06-24T14:34:42Z</time>
      </trkpt>
      <trkpt lat="60.869543962" lon="15.1302526825">
        <ele>348.2</ele>
        <time>2011-06-24T14:34:46Z</time>
      </trkpt>
      <trkpt lat="60.8695179781" lon="15.1298659416">
        <ele>347.6</ele>
        <time>2011-06-24T14:34:51Z</time>
      </trkpt>
      <trkpt lat="60.8695026392" lon="15.1298100343">
        <ele>347.6</ele>
        <time>2011-06-24T14:34:52Z</time>
      </trkpt>
      <trkpt lat="60.8694958499" lon="15.1296793605">
        <ele>347</ele>
        <time>2011-06-24T14:34:54Z</time>
      </trkpt>
      <trkpt lat="60.8694972748" lon="15.1296097069">
        <ele>346.6</ele>
        <time>2011-06-24T14:34:55Z</time>
      </trkpt>
      <trkpt lat="60.8694764039" lon="15.1292909433">
        <ele>345.6</ele>
        <time>2011-06-24T14:35:00Z</time>
      </trkpt>
      <trkpt lat="60.8694831932" lon="15.1290166037">
        <ele>344.6</ele>
        <time>2011-06-24T14:35:04Z</time>
      </trkpt>
      <trkpt lat="60.8694628252" lon="15.1288304417">
        <ele>343.6</ele>
        <time>2011-06-24T14:35:07Z</time>
      </trkpt>
      <trkpt lat="60.8693937584" lon="15.1284447905">
        <ele>342</ele>
        <time>2011-06-24T14:35:13Z</time>
      </trkpt>
      <trkpt lat="60.8692905772" lon="15.1279296389">
        <ele>340</ele>
        <time>2011-06-24T14:35:21Z</time>
      </trkpt>
      <trkpt lat="60.869283704" lon="15.12768648">
        <ele>339.4</ele>
        <time>2011-06-24T14:35:24Z</time>
      </trkpt>
      <trkpt lat="60.8692703768" lon="15.1273067799">
        <ele>338</ele>
        <time>2011-06-24T14:35:29Z</time>
      </trkpt>
      <trkpt lat="60.8692522719" lon="15.1269718392">
        <ele>336.4</ele>
        <time>2011-06-24T14:35:34Z</time>
      </trkpt>
      <trkpt lat="60.8692471589" lon="15.1269166024">
        <ele>336.2</ele>
        <time>2011-06-24T14:35:35Z</time>
      </trkpt>
      <trkpt lat="60.8692940137" lon="15.1265775546">
        <ele>334.6</ele>
        <time>2011-06-24T14:35:40Z</time>
      </trkpt>
      <trkpt lat="60.86935319" lon="15.1264155325">
        <ele>333.6</ele>
        <time>2011-06-24T14:35:43Z</time>
      </trkpt>
      <trkpt lat="60.8693780004" lon="15.1263718628">
        <ele>333.2</ele>
        <time>2011-06-24T14:35:44Z</time>
      </trkpt>
      <trkpt lat="60.8694293814" lon="15.1262821764">
        <ele>332.4</ele>
        <time>2011-06-24T14:35:46Z</time>
      </trkpt>
      <trkpt lat="60.869479589" lon="15.1260486567">
        <ele>330.8</ele>
        <time>2011-06-24T14:35:50Z</time>
      </trkpt>
      <trkpt lat="60.8695068302" lon="15.1258885624">
        <ele>329.6</ele>
        <time>2011-06-24T14:35:52Z</time>
      </trkpt>
      <trkpt lat="60.8695550261" lon="15.1256633408">
        <ele>327.8</ele>
        <time>2011-06-24T14:35:56Z</time>
      </trkpt>
      <trkpt lat="60.869636582" lon="15.1254323356">
        <ele>325.8</ele>
        <time>2011-06-24T14:36:00Z</time>
      </trkpt>
      <trkpt lat="60.8697039725" lon="15.124848201">
        <ele>320.6</ele>
        <time>2011-06-24T14:36:11Z</time>
      </trkpt>
      <trkpt lat="60.8697077443" lon="15.1247277531">
        <ele>319.6</ele>
        <time>2011-06-24T14:36:13Z</time>
      </trkpt>
      <trkpt lat="60.8697731231" lon="15.1245941456">
        <ele>317.4</ele>
        <time>2011-06-24T14:36:17Z</time>
      </trkpt>
      <trkpt lat="60.8699395039" lon="15.1243487236">
        <ele>314.2</ele>
        <time>2011-06-24T14:36:23Z</time>
      </trkpt>
      <trkpt lat="60.8700845107" lon="15.1241872882">
        <ele>311</ele>
        <time>2011-06-24T14:36:29Z</time>
      </trkpt>
      <trkpt lat="60.8701013583" lon="15.1241672554">
        <ele>309</ele>
        <time>2011-06-24T14:36:33Z</time>
      </trkpt>
      <trkpt lat="60.8701133445" lon="15.124161891">
        <ele>307.4</ele>
        <time>2011-06-24T14:36:37Z</time>
      </trkpt>
      <trkpt lat="60.8701918829" lon="15.1241224123">
        <ele>305.6</ele>
        <time>2011-06-24T14:36:42Z</time>
      </trkpt>
      <trkpt lat="60.8702068865" lon="15.1241062352">
        <ele>305.4</ele>
        <time>2011-06-24T14:36:43Z</time>
      </trkpt>
      <trkpt lat="60.8702415875" lon="15.1240688519">
        <ele>305</ele>
        <time>2011-06-24T14:36:45Z</time>
      </trkpt>
      <trkpt lat="60.8702596924" lon="15.1240333965">
        <ele>302.8</ele>
        <time>2011-06-24T14:36:54Z</time>
      </trkpt>
      <trkpt lat="60.8703092295" lon="15.1240076641">
        <ele>302</ele>
        <time>2011-06-24T14:37:00Z</time>
      </trkpt>
      <trkpt lat="60.8704055375" lon="15.1240009585">
        <ele>301.2</ele>
        <time>2011-06-24T14:37:04Z</time>
      </trkpt>
      <trkpt lat="60.8704273304" lon="15.1239743879">
        <ele>301</ele>
        <time>2011-06-24T14:37:05Z</time>
      </trkpt>
      <trkpt lat="60.8705425816" lon="15.1237865495">
        <ele>300</ele>
        <time>2011-06-24T14:37:11Z</time>
      </trkpt>
      <trkpt lat="60.8706645382" lon="15.123613128">
        <ele>298.8</ele>
        <time>2011-06-24T14:37:16Z</time>
      </trkpt>
      <trkpt lat="60.8707815495" lon="15.1233954501">
        <ele>297.6</ele>
        <time>2011-06-24T14:37:21Z</time>
      </trkpt>
      <trkpt lat="60.8708906819" lon="15.1231666242">
        <ele>296.8</ele>
        <time>2011-06-24T14:37:25Z</time>
      </trkpt>
      <trkpt lat="60.8709135645" lon="15.1231249662">
        <ele>296.6</ele>
        <time>2011-06-24T14:37:26Z</time>
      </trkpt>
      <trkpt lat="60.8710959546" lon="15.1229631117">
        <ele>294.8</ele>
        <time>2011-06-24T14:37:32Z</time>
      </trkpt>
      <trkpt lat="60.8711637642" lon="15.1230839787">
        <ele>293.8</ele>
        <time>2011-06-24T14:37:36Z</time>
      </trkpt>
      <trkpt lat="60.8712039973" lon="15.1231668757">
        <ele>293.2</ele>
        <time>2011-06-24T14:37:38Z</time>
      </trkpt>
      <trkpt lat="60.8712581444" lon="15.1232289855">
        <ele>292.6</ele>
        <time>2011-06-24T14:37:40Z</time>
      </trkpt>
      <trkpt lat="60.8713831185" lon="15.1232830488">
        <ele>291.6</ele>
        <time>2011-06-24T14:37:44Z</time>
      </trkpt>
      <trkpt lat="60.8713996308" lon="15.123319091">
        <ele>291.2</ele>
        <time>2011-06-24T14:37:45Z</time>
      </trkpt>
      <trkpt lat="60.8714582203" lon="15.1234566379">
        <ele>290.2</ele>
        <time>2011-06-24T14:37:49Z</time>
      </trkpt>
      <trkpt lat="60.8715368425" lon="15.1235701289">
        <ele>289</ele>
        <time>2011-06-24T14:37:53Z</time>
      </trkpt>
      <trkpt lat="60.8716362519" lon="15.1236531097">
        <ele>287.8</ele>
        <time>2011-06-24T14:37:58Z</time>
      </trkpt>
      <trkpt lat="60.871676485" lon="15.1237028982">
        <ele>287.6</ele>
        <time>2011-06-24T14:38:00Z</time>
      </trkpt>
      <trkpt lat="60.8718115174" lon="15.1238842825">
        <ele>286</ele>
        <time>2011-06-24T14:38:06Z</time>
      </trkpt>
      <trkpt lat="60.8719243378" lon="15.1240427004">
        <ele>285.2</ele>
        <time>2011-06-24T14:38:11Z</time>
      </trkpt>
      <trkpt lat="60.8720458753" lon="15.1240073288">
        <ele>283.4</ele>
        <time>2011-06-24T14:38:20Z</time>
      </trkpt>
      <trkpt lat="60.8720854379" lon="15.1239041476">
        <ele>282.8</ele>
        <time>2011-06-24T14:38:24Z</time>
      </trkpt>
      <trkpt lat="60.8721602044" lon="15.12378261">
        <ele>282.6</ele>
        <time>2011-06-24T14:38:29Z</time>
      </trkpt>
      <trkpt lat="60.8721911337" lon="15.1237235176">
        <ele>281.8</ele>
        <time>2011-06-24T14:38:32Z</time>
      </trkpt>
      <trkpt lat="60.8722912974" lon="15.1234822027">
        <ele>280.4</ele>
        <time>2011-06-24T14:38:40Z</time>
      </trkpt>
      <trkpt lat="60.8723537425" lon="15.1232884132">
        <ele>279.4</ele>
        <time>2011-06-24T14:38:45Z</time>
      </trkpt>
      <trkpt lat="60.8724250725" lon="15.1230332682">
        <ele>277.6</ele>
        <time>2011-06-24T14:38:51Z</time>
      </trkpt>
      <trkpt lat="60.872485506" lon="15.122838389">
        <ele>276.6</ele>
        <time>2011-06-24T14:38:55Z</time>
      </trkpt>
      <trkpt lat="60.8724962348" lon="15.1227990779">
        <ele>276.2</ele>
        <time>2011-06-24T14:38:56Z</time>
      </trkpt>
      <trkpt lat="60.8725622004" lon="15.1225446872">
        <ele>275.2</ele>
        <time>2011-06-24T14:39:01Z</time>
      </trkpt>
      <trkpt lat="60.8726210413" lon="15.1222979241">
        <ele>273.6</ele>
        <time>2011-06-24T14:39:06Z</time>
      </trkpt>
      <trkpt lat="60.8726642081" lon="15.1220271887">
        <ele>272</ele>
        <time>2011-06-24T14:39:11Z</time>
      </trkpt>
      <trkpt lat="60.8727393099" lon="15.1216279588">
        <ele>269.4</ele>
        <time>2011-06-24T14:39:19Z</time>
      </trkpt>
      <trkpt lat="60.8728237157" lon="15.1214885678">
        <ele>267.6</ele>
        <time>2011-06-24T14:39:24Z</time>
      </trkpt>
      <trkpt lat="60.8729288247" lon="15.1213069321">
        <ele>265.4</ele>
        <time>2011-06-24T14:39:29Z</time>
      </trkpt>
      <trkpt lat="60.8729942035" lon="15.1211926868">
        <ele>264</ele>
        <time>2011-06-24T14:39:32Z</time>
      </trkpt>
      <trkpt lat="60.8730880808" lon="15.1210348556">
        <ele>261.8</ele>
        <time>2011-06-24T14:39:36Z</time>
      </trkpt>
      <trkpt lat="60.8731303256" lon="15.1208837299">
        <ele>260.4</ele>
        <time>2011-06-24T14:39:39Z</time>
      </trkpt>
      <trkpt lat="60.8732180002" lon="15.1207196123">
        <ele>258.6</ele>
        <time>2011-06-24T14:39:43Z</time>
      </trkpt>
      <trkpt lat="60.8733700479" lon="15.1204928819">
        <ele>256</ele>
        <time>2011-06-24T14:39:49Z</time>
      </trkpt>
      <trkpt lat="60.8734956088" lon="15.1203437679">
        <ele>254</ele>
        <time>2011-06-24T14:39:54Z</time>
      </trkpt>
      <trkpt lat="60.8735638374" lon="15.1201669937">
        <ele>252.8</ele>
        <time>2011-06-24T14:39:58Z</time>
      </trkpt>
      <trkpt lat="60.8736728021" lon="15.1199053107">
        <ele>250.8</ele>
        <time>2011-06-24T14:40:04Z</time>
      </trkpt>
      <trkpt lat="60.8737696131" lon="15.1196422029">
        <ele>248.8</ele>
        <time>2011-06-24T14:40:10Z</time>
      </trkpt>
      <trkpt lat="60.8738064934" lon="15.119564838">
        <ele>248.2</ele>
        <time>2011-06-24T14:40:12Z</time>
      </trkpt>
      <trkpt lat="60.8739473932" lon="15.1196826875">
        <ele>246.8</ele>
        <time>2011-06-24T14:40:18Z</time>
      </trkpt>
      <trkpt lat="60.8740955013" lon="15.119925092">
        <ele>245.4</ele>
        <time>2011-06-24T14:40:24Z</time>
      </trkpt>
      <trkpt lat="60.8742343056" lon="15.1201638085">
        <ele>244.2</ele>
        <time>2011-06-24T14:40:30Z</time>
      </trkpt>
      <trkpt lat="60.8743633869" lon="15.1203421754">
        <ele>243.4</ele>
        <time>2011-06-24T14:40:35Z</time>
      </trkpt>
      <trkpt lat="60.8743851798" lon="15.1203700871">
        <ele>243.2</ele>
        <time>2011-06-24T14:40:36Z</time>
      </trkpt>
      <trkpt lat="60.8745665641" lon="15.1204675686">
        <ele>242.6</ele>
        <time>2011-06-24T14:40:42Z</time>
      </trkpt>
      <trkpt lat="60.8747471102" lon="15.1203774632">
        <ele>241.4</ele>
        <time>2011-06-24T14:40:48Z</time>
      </trkpt>
      <trkpt lat="60.8749191907" lon="15.1201918041">
        <ele>240.2</ele>
        <time>2011-06-24T14:40:54Z</time>
      </trkpt>
      <trkpt lat="60.8750920254" lon="15.1199955">
        <ele>239</ele>
        <time>2011-06-24T14:41:00Z</time>
      </trkpt>
      <trkpt lat="60.8752632676" lon="15.1198107629">
        <ele>237.6</ele>
        <time>2011-06-24T14:41:06Z</time>
      </trkpt>
      <trkpt lat="60.8754109567" lon="15.119737086">
        <ele>236.6</ele>
        <time>2011-06-24T14:41:11Z</time>
      </trkpt>
      <trkpt lat="60.875620588" lon="15.1197758104">
        <ele>235</ele>
        <time>2011-06-24T14:41:17Z</time>
      </trkpt>
      <trkpt lat="60.875811863" lon="15.1198021295">
        <ele>233.6</ele>
        <time>2011-06-24T14:41:23Z</time>
      </trkpt>
      <trkpt lat="60.8760053173" lon="15.1198618087">
        <ele>232.6</ele>
        <time>2011-06-24T14:41:29Z</time>
      </trkpt>
      <trkpt lat="60.8761959217" lon="15.1199208173">
        <ele>231</ele>
        <time>2011-06-24T14:41:35Z</time>
      </trkpt>
      <trkpt lat="60.8763821675" lon="15.1200031275">
        <ele>230.2</ele>
        <time>2011-06-24T14:41:41Z</time>
      </trkpt>
      <trkpt lat="60.8765655634" lon="15.1200861921">
        <ele>229</ele>
        <time>2011-06-24T14:41:47Z</time>
      </trkpt>
      <trkpt lat="60.8767392364" lon="15.1201570192">
        <ele>228.2</ele>
        <time>2011-06-24T14:41:53Z</time>
      </trkpt>
      <trkpt lat="60.8769310143" lon="15.1202142676">
        <ele>226.8</ele>
        <time>2011-06-24T14:41:59Z</time>
      </trkpt>
      <trkpt lat="60.8771274022" lon="15.1202331268">
        <ele>225.2</ele>
        <time>2011-06-24T14:42:05Z</time>
      </trkpt>
      <trkpt lat="60.8773249636" lon="15.1202199673">
        <ele>223.4</ele>
        <time>2011-06-24T14:42:11Z</time>
      </trkpt>
      <trkpt lat="60.8775168253" lon="15.1202266728">
        <ele>221.8</ele>
        <time>2011-06-24T14:42:17Z</time>
      </trkpt>
      <trkpt lat="60.8776784283" lon="15.1202748687">
        <ele>220.6</ele>
        <time>2011-06-24T14:42:22Z</time>
      </trkpt>
      <trkpt lat="60.8778080125" lon="15.1204046205">
        <ele>219</ele>
        <time>2011-06-24T14:42:27Z</time>
      </trkpt>
      <trkpt lat="60.8778742295" lon="15.1204589352">
        <ele>218.4</ele>
        <time>2011-06-24T14:42:30Z</time>
      </trkpt>
      <trkpt lat="60.8779232636" lon="15.1204844162">
        <ele>217.8</ele>
        <time>2011-06-24T14:42:34Z</time>
      </trkpt>
      <trkpt lat="60.8779849544" lon="15.1205912016">
        <ele>216.4</ele>
        <time>2011-06-24T14:42:41Z</time>
      </trkpt>
      <trkpt lat="60.8780572902" lon="15.1206972326">
        <ele>214.8</ele>
        <time>2011-06-24T14:42:48Z</time>
      </trkpt>
      <trkpt lat="60.8781271952" lon="15.12080033">
        <ele>213</ele>
        <time>2011-06-24T14:42:55Z</time>
      </trkpt>
      <trkpt lat="60.8781789954" lon="15.1208812154">
        <ele>212</ele>
        <time>2011-06-24T14:43:00Z</time>
      </trkpt>
      <trkpt lat="60.8782626467" lon="15.1210073629">
        <ele>209.2</ele>
        <time>2011-06-24T14:43:09Z</time>
      </trkpt>
      <trkpt lat="60.8783350664" lon="15.1210979713">
        <ele>206.8</ele>
        <time>2011-06-24T14:43:15Z</time>
      </trkpt>
      <trkpt lat="60.8784193883" lon="15.1212466662">
        <ele>204.6</ele>
        <time>2011-06-24T14:43:22Z</time>
      </trkpt>
      <trkpt lat="60.878421819" lon="15.1212813673">
        <ele>204.4</ele>
        <time>2011-06-24T14:43:23Z</time>
      </trkpt>
      <trkpt lat="60.8784341404" lon="15.1214407072">
        <ele>203</ele>
        <time>2011-06-24T14:43:29Z</time>
      </trkpt>
      <trkpt lat="60.8784360683" lon="15.121573225">
        <ele>202.4</ele>
        <time>2011-06-24T14:43:34Z</time>
      </trkpt>
      <trkpt lat="60.8784061449" lon="15.1216557867">
        <ele>202</ele>
        <time>2011-06-24T14:43:38Z</time>
      </trkpt>
      <trkpt lat="60.8784006966" lon="15.1216836985">
        <ele>202</ele>
        <time>2011-06-24T14:43:40Z</time>
      </trkpt>
      <trkpt lat="60.878422741" lon="15.1217665954">
        <ele>201.8</ele>
        <time>2011-06-24T14:43:45Z</time>
      </trkpt>
      <trkpt lat="60.8784305362" lon="15.1217887237">
        <ele>201.6</ele>
        <time>2011-06-24T14:43:48Z</time>
      </trkpt>
      <trkpt lat="60.878467668" lon="15.1218356623">
        <ele>201.6</ele>
        <time>2011-06-24T14:43:54Z</time>
      </trkpt>
      <trkpt lat="60.8784923108" lon="15.121884445">
        <ele>201.6</ele>
        <time>2011-06-24T14:43:58Z</time>
      </trkpt>
      <trkpt lat="60.8784991001" lon="15.1218920725">
        <ele>201.4</ele>
        <time>2011-06-24T14:44:05Z</time>
      </trkpt>
      <trkpt lat="60.8784757146" lon="15.1219481474">
        <ele>201.4</ele>
        <time>2011-06-24T14:44:11Z</time>
      </trkpt>
      <trkpt lat="60.8784742059" lon="15.121940939">
        <ele>201.4</ele>
        <time>2011-06-24T14:44:21Z</time>
      </trkpt>
      <trkpt lat="60.878499184" lon="15.1219260192">
        <ele>201.4</ele>
        <time>2011-06-24T14:44:36Z</time>
      </trkpt>
      <trkpt lat="60.8785853499" lon="15.1218294597">
        <ele>211.6</ele>
        <time>2011-06-24T14:50:00Z</time>
      </trkpt>
      <trkpt lat="60.8785092422" lon="15.1218934974">
        <ele>211.6</ele>
        <time>2011-06-24T14:50:04Z</time>
      </trkpt>
      <trkpt lat="60.8785122597" lon="15.1218914858">
        <ele>211.6</ele>
        <time>2011-06-24T14:50:07Z</time>
      </trkpt>
      <trkpt lat="60.8785348909" lon="15.1218916534">
        <ele>211.6</ele>
        <time>2011-06-24T14:50:18Z</time>
      </trkpt>
      <trkpt lat="60.8785353099" lon="15.1219338144">
        <ele>209.6</ele>
        <time>2011-06-24T14:50:52Z</time>
      </trkpt>
      <trkpt lat="60.8785488886" lon="15.1218997">
        <ele>209.6</ele>
        <time>2011-06-24T14:52:28Z</time>
      </trkpt>
      <trkpt lat="60.8785551751" lon="15.1218971016">
        <ele>209.6</ele>
        <time>2011-06-24T14:52:38Z</time>
      </trkpt>
      <trkpt lat="60.87851863" lon="15.121920571">
        <ele>209.6</ele>
        <time>2011-06-24T14:53:01Z</time>
      </trkpt>
      <trkpt lat="60.8785012794" lon="15.1219733769">
        <ele>209.6</ele>
        <time>2011-06-24T14:53:06Z</time>
      </trkpt>
      <trkpt lat="60.8784725295" lon="15.1220406836">
        <ele>209.6</ele>
        <time>2011-06-24T14:53:11Z</time>
      </trkpt>
      <trkpt lat="60.8784786483" lon="15.1219960081">
        <ele>209.6</ele>
        <time>2011-06-24T14:53:19Z</time>
      </trkpt>
      <trkpt lat="60.8784509042" lon="15.1219379215">
        <ele>209.6</ele>
        <time>2011-06-24T14:53:24Z</time>
      </trkpt>
      <trkpt lat="60.8784318773" lon="15.1219408552">
        <ele>209.6</ele>
        <time>2011-06-24T14:53:30Z</time>
      </trkpt>
      <trkpt lat="60.8784591185" lon="15.1218727103">
        <ele>209.6</ele>
        <time>2011-06-24T14:53:34Z</time>
      </trkpt>
      <trkpt lat="60.8784607949" lon="15.1218592154">
        <ele>209.4</ele>
        <time>2011-06-24T14:53:35Z</time>
      </trkpt>
      <trkpt lat="60.8783718629" lon="15.1217044856">
        <ele>208.6</ele>
        <time>2011-06-24T14:53:40Z</time>
      </trkpt>
      <trkpt lat="60.8783582004" lon="15.1216857939">
        <ele>208.4</ele>
        <time>2011-06-24T14:53:42Z</time>
      </trkpt>
      <trkpt lat="60.8783851901" lon="15.1217540226">
        <ele>208</ele>
        <time>2011-06-24T14:53:48Z</time>
      </trkpt>
      <trkpt lat="60.878390806" lon="15.1217556152">
        <ele>207.8</ele>
        <time>2011-06-24T14:53:55Z</time>
      </trkpt>
      <trkpt lat="60.8783745451" lon="15.1217981952">
        <ele>207.6</ele>
        <time>2011-06-24T14:54:02Z</time>
      </trkpt>
      <trkpt lat="60.8783736231" lon="15.1218048169">
        <ele>207.6</ele>
        <time>2011-06-24T14:54:04Z</time>
      </trkpt>
    </trkseg>
  </trk>
</gpx>